YYYY MM/DD hh:mm	Temp	Humid	W_dir	W_spd	Barom	T_int	Light	Power	Temp2	P2	Snow	T_mid	T_base	Precip
Year Date  Time 	(F)	(%)	(Deg)	(MPH)	("Hg)	(F)	/1000	(V)	(F)	-	(")	(F)	(F)	(")
2020 11/25 00:00	26.4	99.9	291.7	20.9	29.80	49.0	0.0	13.00	-136.4	0	-999.9	-999.9	32.3	0	154	0	0	0	39.7	35.8	0.0
2020 11/25 00:15	25.4	99.3	282.7	23.6	29.80	49.0	0.0	13.02	-136.4	0	32.1	27.2	32.1	0	154	0	0	0	39.6	35.7	0.0
2020 11/25 00:30	25.2	99.3	244.2	19.3	29.80	48.9	0.0	13.00	-136.4	0	-999.9	-999.9	32.1	0	154	0	0	0	39.5	35.7	0.0
2020 11/25 00:45	25.0	99.2	235.7	25.8	29.80	48.8	0.0	12.99	-136.4	0	-999.9	-999.9	31.6	0	154	0	0	0	39.4	35.5	0.0
2020 11/25 01:00	25.0	99.2	232.2	17.4	29.80	48.8	0.0	13.01	-136.5	0	32.2	26.3	32.1	0	154	0	0	0	39.3	35.5	0.0
2020 11/25 01:15	24.9	99.1	278.5	25.4	29.79	48.6	0.0	13.02	-136.5	0	31.7	27.2	32.5	0	154	0	0	0	39.2	35.4	0.0
2020 11/25 01:30	24.9	99.1	305.2	23.4	29.80	48.7	0.0	13.00	-136.5	0	32.4	26.3	31.5	0	154	0	0	0	38.9	35.3	0.0
2020 11/25 01:45	24.5	98.9	287.4	21.6	29.81	48.5	0.0	12.99	-136.5	0	32.6	26.3	31.7	0	154	0	0	0	38.8	35.3	0.0
2020 11/25 02:00	24.3	98.9	237.8	31.9	29.79	48.4	0.0	13.00	-136.5	0	32.5	26.3	31.3	0	154	0	0	0	38.7	35.2	0.0
2020 11/25 02:15	23.5	98.5	241.4	24.7	29.81	48.3	0.0	13.00	-136.6	0	32.5	25.4	30.9	0	154	0	0	0	38.6	35.1	0.0
2020 11/25 02:30	23.4	98.3	184.9	16.8	29.82	48.2	0.0	13.01	-136.6	0	32.5	25.4	30.6	0	154	0	0	0	38.5	35.1	0.0
2020 11/25 02:45	23.4	98.3	278.5	22.0	29.82	48.1	0.0	13.02	-136.6	0	32.5	25.4	30.5	0	154	0	0	0	38.4	35.0	0.0
2020 11/25 03:00	22.9	98.1	218.4	27.8	29.81	48.0	0.0	13.00	-136.6	0	32.5	24.5	30.2	0	154	0	0	0	38.2	34.9	0.0
2020 11/25 03:15	22.5	98.0	257.1	26.2	29.81	47.9	0.0	13.02	-136.6	0	32.5	24.5	29.9	0	154	0	0	0	38.1	34.9	0.0
2020 11/25 03:30	22.7	98.1	236.3	24.4	29.82	47.8	0.0	13.01	-136.6	0	32.5	24.5	29.7	0	154	0	0	0	38.0	34.8	0.0
2020 11/25 03:45	22.9	98.2	290.8	29.3	29.82	47.8	0.0	13.02	-136.6	0	32.4	25.4	30.0	0	154	0	0	0	37.9	34.7	0.0
2020 11/25 04:00	23.0	98.2	225.5	25.4	29.81	47.6	0.0	13.01	-136.6	0	32.0	25.4	30.4	0	154	0	0	0	37.8	34.7	0.0
2020 11/25 04:15	23.1	98.1	235.3	23.1	29.82	47.6	0.0	12.99	-136.7	0	32.4	25.4	30.0	0	154	0	0	0	37.7	34.5	0.0
2020 11/25 04:30	23.1	98.1	249.1	18.1	29.82	47.4	0.0	13.00	-136.7	0	-997.0	-997.0	30.3	0	154	0	0	0	37.7	34.5	0.0
2020 11/25 04:45	23.1	98.1	265.2	20.0	29.82	47.4	0.0	12.99	-136.7	0	32.4	25.4	29.7	0	154	0	0	0	37.6	34.4	0.0
2020 11/25 05:00	23.1	98.1	229.3	14.4	29.83	47.2	0.0	13.01	-136.7	0	32.2	25.4	29.8	0	154	0	0	0	37.5	34.4	0.0
2020 11/25 05:15	23.1	98.1	277.5	19.1	29.83	47.2	0.0	13.02	-136.7	0	32.4	25.4	29.9	0	154	0	0	0	37.4	34.3	0.0
2020 11/25 05:30	23.1	98.3	222.5	24.6	29.83	47.0	0.0	12.99	-136.7	0	32.3	25.4	30.6	0	154	0	0	0	37.2	34.3	0.0
2020 11/25 05:45	23.1	98.2	260.2	17.6	29.82	46.9	0.0	13.01	-136.9	0	32.2	25.4	30.3	0	154	0	0	0	37.2	34.2	0.0
2020 11/25 06:00	23.2	98.3	270.7	27.5	29.83	47.0	0.0	12.99	-136.9	0	32.3	25.4	30.0	0	154	0	0	0	37.1	34.2	0.0
2020 11/25 06:15	23.3	98.2	239.5	20.0	29.84	46.7	0.0	13.00	-136.9	0	32.2	25.4	30.6	0	154	0	0	0	37.0	34.2	0.0
2020 11/25 06:30	23.5	98.4	257.2	21.6	29.83	46.7	0.0	12.98	-136.9	0	32.2	25.4	30.4	0	154	0	0	0	36.9	34.1	0.0
2020 11/25 06:45	23.6	98.4	259.8	22.7	29.84	46.6	0.0	13.01	-136.9	0	31.6	25.4	30.7	0	154	0	0	0	36.9	34.1	0.0
2020 11/25 07:00	23.8	98.5	257.6	21.9	29.84	46.5	5.4	13.02	-136.9	0	32.4	25.4	31.2	0	154	0	0	0	36.8	34.0	0.0
2020 11/25 07:15	23.9	98.6	234.9	21.8	29.85	46.5	42.8	13.01	-136.9	0	32.3	26.3	31.7	0	154	0	0	0	36.8	34.0	0.0
2020 11/25 07:30	24.0	98.6	247.5	21.2	29.85	46.4	124.2	12.99	-136.9	0	-997.0	-997.0	31.4	0	154	0	0	0	36.7	34.0	0.0
2020 11/25 07:45	24.1	98.7	247.2	23.6	29.85	46.3	221.9	12.99	-136.9	0	32.8	26.3	32.1	0	154	0	0	0	36.7	34.0	0.0
2020 11/25 08:00	24.3	98.7	234.8	22.8	29.86	46.3	334.9	13.01	-136.9	0	32.7	26.3	31.6	0	154	0	0	0	36.6	33.9	0.0
2020 11/25 08:15	24.4	98.7	237.4	21.3	29.86	46.2	375.0	13.00	-136.9	0	33.1	26.3	32.3	0	154	0	0	0	36.6	33.9	0.0
2020 11/25 08:30	25.5	99.4	245.8	21.9	29.87	46.1	370.5	13.02	-137.0	0	33.1	26.3	32.0	0	154	0	0	0	36.6	33.9	0.0
2020 11/25 08:45	24.5	98.7	216.3	20.0	29.87	46.1	413.6	12.99	-137.0	0	33.3	26.3	32.1	0	154	0	0	0	36.6	33.9	0.0
2020 11/25 09:00	24.5	98.7	242.9	19.8	29.88	46.0	494.7	13.00	-137.0	0	33.3	26.3	33.0	0	154	0	0	0	36.5	33.9	0.0
2020 11/25 09:15	24.6	98.7	240.4	21.4	29.88	46.0	353.2	13.00	-137.0	0	32.9	26.3	32.5	0	154	0	0	0	36.6	33.9	0.0
2020 11/25 09:30	24.6	98.7	266.4	20.6	29.90	45.9	492.4	12.98	-137.0	0	-997.0	-997.0	33.1	0	154	0	0	0	36.6	34.0	0.0
2020 11/25 09:45	24.7	98.9	263.1	18.7	29.91	45.9	516.8	13.00	-137.0	0	33.8	27.2	34.0	0	154	0	0	0	36.6	34.0	0.0
2020 11/25 10:00	25.1	99.0	221.7	20.5	29.91	45.9	501.9	13.00	-137.0	0	33.8	27.2	33.9	0	154	0	0	0	36.6	34.1	0.0
2020 11/25 10:15	25.1	98.9	272.0	12.1	29.92	45.9	514.1	13.01	-137.0	0	33.2	27.2	33.5	0	154	0	0	0	36.6	34.2	0.0
2020 11/25 10:30	25.2	98.9	273.6	17.5	29.92	45.9	602.0	13.00	-137.0	0	-999.9	-999.9	34.0	0	154	0	0	0	36.6	34.2	0.0
2020 11/25 10:45	25.2	98.9	263.6	15.7	29.92	45.9	622.0	13.02	-137.0	0	33.4	27.2	34.2	0	154	0	0	0	36.6	34.3	0.0
2020 11/25 11:00	25.4	99.0	255.5	16.1	29.93	46.0	666.4	13.02	-137.0	0	-997.0	-997.0	34.2	0	154	0	0	0	36.7	34.3	0.0
2020 11/25 11:15	25.6	99.1	264.2	19.9	29.93	46.1	608.4	13.02	-137.0	0	33.1	28.1	34.2	0	154	0	0	0	36.7	34.5	0.0
2020 11/25 11:30	25.7	99.1	163.7	15.5	29.93	46.1	604.0	13.01	-137.0	0	33.1	28.1	34.6	0	154	0	0	0	36.7	34.5	0.0
2020 11/25 11:45	25.6	99.1	290.1	17.9	29.93	46.1	624.7	13.00	-137.0	0	-999.9	-999.9	34.4	0	154	0	0	0	36.7	34.7	0.0
2020 11/25 12:00	25.7	99.2	271.3	17.3	29.93	46.2	619.6	13.01	-137.0	0	-999.9	-999.9	34.9	0	154	0	0	0	36.9	34.8	0.0
2020 11/25 12:15	25.7	99.2	262.5	15.3	29.93	46.3	639.3	13.00	-137.0	0	-999.9	-999.9	35.9	0	154	0	0	0	37.0	34.9	0.0
2020 11/25 12:30	25.7	99.1	221.7	21.8	29.92	46.3	669.8	13.00	-137.0	0	32.7	28.1	35.5	0	154	0	0	0	37.0	35.0	0.0
2020 11/25 12:45	25.7	99.2	253.8	22.2	29.93	46.4	615.5	13.01	-136.9	0	33.4	28.1	35.5	0	154	0	0	0	37.1	35.0	0.0
2020 11/25 13:00	26.7	99.8	234.4	19.9	29.93	46.5	578.6	13.02	-136.9	0	32.6	28.1	35.7	0	154	0	0	0	37.4	35.1	0.0
2020 11/25 13:15	25.6	99.0	257.5	21.9	29.93	46.6	468.6	13.01	-136.9	0	34.4	27.2	34.8	0	154	0	0	0	37.4	35.3	0.0
2020 11/25 13:30	25.5	99.0	241.5	16.8	29.95	46.6	507.0	12.99	-136.9	0	34.2	27.2	34.1	0	154	0	0	0	37.4	35.2	0.0
2020 11/25 13:45	25.5	99.0	237.6	14.6	29.95	46.7	603.0	13.02	-136.9	0	33.4	28.1	34.3	0	154	0	0	0	37.5	35.2	0.0
2020 11/25 14:00	25.8	99.3	301.9	18.9	29.96	46.7	496.1	13.00	-136.9	0	34.5	28.1	34.5	0	154	0	0	0	37.5	35.2	0.0
2020 11/25 14:15	26.0	99.2	266.6	14.8	29.97	46.8	489.7	13.02	-136.9	0	34.5	28.1	34.8	0	154	0	0	0	37.4	35.2	0.0
2020 11/25 14:30	26.0	99.3	223.0	13.4	29.97	47.0	505.3	13.02	-136.9	0	34.7	28.1	34.0	0	154	0	0	0	37.4	35.2	0.0
2020 11/25 14:45	26.7	99.8	245.6	22.6	29.97	47.0	505.6	12.99	-136.9	0	34.7	28.1	34.2	0	154	0	0	0	37.4	35.1	0.0
2020 11/25 15:00	25.8	99.2	245.3	16.9	29.98	47.0	434.0	12.99	-136.9	0	34.6	28.1	33.9	0	154	0	0	0	37.4	35.1	0.0
2020 11/25 15:15	25.8	99.2	238.2	13.9	29.98	47.0	337.6	13.00	-136.9	0	34.5	28.1	34.1	0	154	0	0	0	37.4	35.0	0.0
2020 11/25 15:30	25.6	99.1	234.2	16.8	29.99	47.1	252.8	13.00	-136.7	0	34.8	27.2	33.4	0	154	0	0	0	37.2	35.0	0.0
2020 11/25 15:45	25.5	99.0	240.4	19.4	29.99	47.1	203.3	12.99	-136.7	0	-997.0	-997.0	34.2	0	154	0	0	0	37.4	34.9	0.0
2020 11/25 16:00	25.4	99.1	248.9	18.2	30.00	47.2	151.7	12.98	-136.7	0	34.9	27.2	33.2	0	154	0	0	0	37.2	34.9	0.0
2020 11/25 16:15	25.4	98.9	242.3	20.0	30.00	47.2	104.2	12.99	-136.7	0	-999.9	-999.9	32.6	0	154	0	0	0	37.1	34.8	0.0
2020 11/25 16:30	26.1	99.4	232.7	16.4	30.01	47.2	54.6	13.00	-136.9	0	-999.9	-999.9	32.3	0	154	0	0	0	37.1	34.7	0.0
2020 11/25 16:45	25.1	98.9	318.5	17.5	30.01	47.2	10.2	13.02	-136.9	0	33.7	27.2	33.0	0	154	0	0	0	37.0	34.7	0.0
2020 11/25 17:00	25.1	98.9	233.6	18.6	30.01	47.1	0.7	13.01	-136.9	0	34.8	27.2	32.5	0	154	0	0	0	37.0	34.5	0.0
2020 11/25 17:15	25.2	98.9	303.1	14.5	30.01	47.1	0.0	13.02	-136.9	0	-999.9	-999.9	32.4	0	154	0	0	0	36.9	34.4	0.0
2020 11/25 17:30	25.2	98.9	274.4	16.5	30.02	47.0	0.0	13.00	-136.9	0	-999.9	-999.9	32.6	0	154	0	0	0	36.9	34.4	0.0
2020 11/25 17:45	25.2	98.9	244.9	17.2	30.03	47.0	0.0	13.00	-136.9	0	34.6	27.2	32.8	0	154	0	0	0	36.8	34.4	0.0
2020 11/25 18:00	25.2	99.0	278.6	16.7	30.04	47.0	0.0	13.00	-136.9	0	33.6	27.2	32.2	0	154	0	0	0	36.8	34.3	0.0
2020 11/25 18:15	25.2	99.0	308.8	14.1	30.04	47.0	0.0	13.00	-136.9	0	-999.9	-999.9	32.7	0	154	0	0	0	36.7	34.2	0.0
2020 11/25 18:30	25.2	98.9	230.5	15.7	30.04	46.9	0.0	13.01	-136.9	0	34.4	27.2	32.5	0	154	0	0	0	36.7	34.2	0.0
2020 11/25 18:45	25.2	99.0	263.0	17.3	30.04	46.8	0.0	12.98	-136.9	0	35.3	27.2	32.7	0	154	0	0	0	36.6	34.2	0.0
2020 11/25 19:00	25.1	98.9	274.2	16.5	30.05	46.8	0.0	12.99	-136.9	0	35.2	27.2	32.2	0	154	0	0	0	36.6	34.1	0.0
2020 11/25 19:15	25.1	98.9	291.5	16.4	30.05	46.7	0.0	13.03	-136.9	0	35.3	27.2	32.0	0	154	0	0	0	36.5	34.1	0.0
2020 11/25 19:30	25.1	98.9	273.2	15.8	30.06	46.7	0.0	13.01	-136.9	0	-999.9	-999.9	32.3	0	154	0	0	0	36.5	34.1	0.0
2020 11/25 19:45	25.2	99.0	269.2	21.1	30.06	46.6	0.0	13.00	-136.9	0	34.9	27.2	32.4	0	154	0	0	0	36.5	34.0	0.0
2020 11/25 20:00	25.4	98.9	264.2	19.2	30.07	46.6	0.0	12.98	-137.0	0	35.4	27.2	32.1	0	154	0	0	0	36.5	34.0	0.0
2020 11/25 20:15	25.5	98.9	301.7	17.9	30.07	46.6	0.0	13.02	-137.0	0	35.5	27.2	32.4	0	154	0	0	0	36.3	34.0	0.0
2020 11/25 20:30	25.6	99.1	267.0	18.1	30.08	46.5	0.0	13.01	-137.0	0	-997.0	-997.0	32.5	0	154	0	0	0	36.2	34.0	0.0
2020 11/25 20:45	25.6	99.2	282.6	16.9	30.08	46.5	0.0	13.02	-137.0	0	35.3	27.2	32.3	0	154	0	0	0	36.2	34.0	0.0
2020 11/25 21:00	25.7	99.2	258.0	12.2	30.09	46.5	0.0	13.02	-137.0	0	35.5	27.2	32.4	0	154	0	0	0	36.2	33.9	0.0
2020 11/25 21:15	25.6	99.2	284.0	14.7	30.10	46.4	0.0	13.00	-137.0	0	35.5	27.2	32.5	0	154	0	0	0	36.1	33.9	0.0
2020 11/25 21:30	26.6	99.2	288.2	13.8	30.10	46.4	0.0	13.02	-137.0	0	35.5	27.2	32.6	0	154	0	0	0	36.1	33.9	0.0
2020 11/25 21:45	25.7	99.2	288.5	12.8	30.10	46.4	0.0	13.02	-137.0	0	35.5	27.2	32.2	0	154	0	0	0	36.1	33.9	0.0
2020 11/25 22:00	25.7	99.2	259.1	16.5	30.11	46.4	0.0	13.00	-137.0	0	35.3	27.2	32.5	0	154	0	0	0	36.0	33.7	0.0
2020 11/25 22:15	25.7	99.2	245.7	15.8	30.11	46.3	0.0	13.01	-137.0	0	35.4	27.2	32.6	0	154	0	0	0	36.0	33.7	0.0
2020 11/25 22:30	25.7	99.2	233.4	17.6	30.11	46.3	0.0	13.01	-137.0	0	35.5	27.2	32.7	0	154	0	0	0	36.0	33.7	0.0
2020 11/25 22:45	25.8	99.2	235.2	17.8	30.11	46.3	0.0	12.99	-137.0	0	35.5	27.2	32.5	0	154	0	0	0	35.9	33.7	0.0
2020 11/25 23:00	25.8	99.3	214.7	16.9	30.12	46.3	0.0	13.02	-137.0	0	35.6	27.2	32.7	0	154	0	0	0	35.9	33.7	0.0
2020 11/25 23:15	26.7	99.6	277.0	18.2	30.12	46.2	0.0	13.01	-137.0	0	35.2	28.1	32.7	0	154	0	0	0	35.9	33.6	0.0
2020 11/25 23:30	26.0	99.2	229.1	15.2	30.12	46.2	0.0	13.02	-137.0	0	-997.0	-997.0	33.3	0	154	0	0	0	35.9	33.7	0.0
2020 11/25 23:45	26.0	99.4	253.1	13.9	30.13	46.2	0.0	13.02	-137.0	0	35.5	27.2	32.3	0	154	0	0	0	35.8	33.6	0.0
2020 11/26 00:00	25.8	99.2	256.8	14.5	30.13	46.1	0.0	13.00	-137.0	0	35.4	27.2	31.7	0	154	0	0	0	35.8	33.6	0.0
2020 11/26 00:15	25.8	99.2	279.8	13.4	30.14	46.1	0.0	13.02	-137.0	0	35.3	28.1	31.8	0	154	0	0	0	35.8	33.6	0.0
2020 11/26 00:30	25.8	99.2	298.6	16.4	30.14	46.1	0.0	13.00	-137.0	0	-997.0	-997.0	32.1	0	154	0	0	0	35.8	33.6	0.0
2020 11/26 00:45	25.8	99.2	260.9	11.8	30.14	46.1	0.0	13.02	-137.0	0	-997.0	-997.0	32.2	0	154	0	0	0	35.7	33.6	0.0
2020 11/26 01:00	25.8	99.2	207.3	12.9	30.14	46.1	0.0	13.00	-137.0	0	35.3	27.2	32.0	0	154	0	0	0	35.5	33.6	0.0
2020 11/26 01:15	25.8	99.2	265.9	16.2	30.14	46.1	0.0	13.00	-137.0	0	35.3	27.2	31.7	0	154	0	0	0	35.5	33.6	0.0
2020 11/26 01:30	26.0	99.2	237.2	14.1	30.14	46.1	0.0	13.02	-137.0	0	35.3	27.2	32.0	0	154	0	0	0	35.5	33.6	0.0
2020 11/26 01:45	25.8	99.3	241.6	16.9	30.14	46.1	0.0	13.00	-137.0	0	35.3	27.2	31.8	0	154	0	0	0	35.5	33.6	0.0
2020 11/26 02:00	26.0	99.4	267.2	17.1	30.15	46.1	0.0	12.99	-137.0	0	35.1	27.2	31.7	0	154	0	0	0	35.4	33.6	0.0
2020 11/26 02:15	25.8	99.2	266.3	16.2	30.15	46.0	0.0	12.99	-137.0	0	-999.9	-999.9	31.6	0	154	0	0	0	35.5	33.5	0.0
2020 11/26 02:30	25.8	99.2	264.4	19.1	30.16	46.0	0.0	13.02	-137.0	0	34.7	27.2	32.5	0	154	0	0	0	35.3	33.5	0.0
2020 11/26 02:45	25.7	99.3	258.5	16.4	30.17	46.0	0.0	13.01	-137.0	0	35.1	27.2	31.7	0	154	0	0	0	35.3	33.5	0.0
2020 11/26 03:00	25.6	99.2	249.0	13.3	30.17	46.0	0.0	13.01	-137.0	0	35.2	27.2	32.2	0	154	0	0	0	35.2	33.5	0.0
2020 11/26 03:15	25.6	99.2	272.0	16.1	30.17	46.0	0.0	13.00	-137.0	0	35.3	27.2	31.7	0	154	0	0	0	35.3	33.4	0.0
2020 11/26 03:30	25.6	99.2	202.4	13.1	30.17	46.0	0.0	12.99	-137.0	0	35.2	27.2	32.1	0	154	0	0	0	35.2	33.4	0.0
2020 11/26 03:45	25.5	99.2	269.4	14.1	30.17	46.0	0.0	13.02	-137.0	0	35.1	27.2	31.7	0	154	0	0	0	35.2	33.4	0.0
2020 11/26 04:00	25.5	99.1	246.3	13.7	30.17	46.0	0.0	13.02	-137.0	0	34.9	27.2	31.7	0	154	0	0	0	35.1	33.4	0.0
2020 11/26 04:15	25.4	98.9	280.5	13.3	30.18	45.9	0.0	13.02	-137.0	0	34.7	27.2	31.7	0	154	0	0	0	35.2	33.4	0.0
2020 11/26 04:30	25.4	98.9	234.6	16.0	30.18	46.0	0.0	13.01	-137.0	0	34.6	27.2	31.6	0	154	0	0	0	35.1	33.4	0.0
2020 11/26 04:45	25.4	98.9	263.3	13.2	30.18	45.9	0.0	13.02	-137.0	0	34.5	27.2	31.4	0	154	0	0	0	35.1	33.4	0.0
2020 11/26 05:00	25.4	99.1	218.6	15.1	30.18	46.0	0.0	13.02	-137.0	0	34.6	27.2	31.5	0	154	0	0	0	35.0	33.3	0.0
2020 11/26 05:15	25.5	99.1	255.8	13.5	30.19	46.0	0.0	13.02	-137.0	0	34.9	27.2	31.7	0	154	0	0	0	35.0	33.3	0.0
2020 11/26 05:30	26.5	99.7	263.6	14.9	30.20	46.0	0.0	13.00	-137.0	0	-997.0	-997.0	31.7	0	154	0	0	0	35.0	33.3	0.0
2020 11/26 05:45	25.5	99.1	280.6	15.5	30.20	45.9	0.0	13.02	-137.1	0	35.1	27.2	31.8	0	154	0	0	0	35.0	33.3	0.0
2020 11/26 06:00	25.5	99.1	210.1	11.1	30.21	45.9	0.0	13.00	-137.1	0	34.4	27.2	31.7	0	154	0	0	0	34.9	33.3	0.0
2020 11/26 06:15	25.5	99.2	223.1	10.4	30.20	46.0	0.0	13.03	-137.0	0	34.0	27.2	31.7	0	154	0	0	0	34.9	33.3	0.0
2020 11/26 06:30	25.5	99.0	276.3	10.7	30.21	45.9	0.0	13.00	-137.1	0	34.5	27.2	31.8	0	154	0	0	0	34.9	33.3	0.0
2020 11/26 06:45	25.4	99.1	227.3	11.8	30.21	45.9	0.3	13.01	-137.1	0	34.6	27.2	31.7	0	154	0	0	0	34.9	33.2	0.0
2020 11/26 07:00	25.5	99.0	250.6	14.4	30.21	45.9	6.8	13.00	-137.0	0	34.9	27.2	31.6	0	154	0	0	0	34.8	33.2	0.0
2020 11/26 07:15	25.6	99.2	288.8	15.4	30.22	45.9	57.7	13.02	-137.0	0	34.9	27.2	32.4	0	154	0	0	0	34.8	33.2	0.0
2020 11/26 07:30	25.5	99.1	274.4	11.9	30.22	45.9	140.5	13.00	-137.0	0	34.7	27.2	32.0	0	154	0	0	0	34.8	33.2	0.0
2020 11/26 07:45	25.5	99.2	234.0	10.4	30.23	45.9	230.1	13.02	-137.0	0	34.4	27.2	32.5	0	154	0	0	0	34.8	33.2	0.0
2020 11/26 08:00	25.6	99.0	276.4	12.2	30.23	45.9	291.5	13.01	-137.0	0	34.5	27.2	32.5	0	154	0	0	0	34.8	33.3	0.0
2020 11/26 08:15	26.3	99.6	243.8	11.7	30.24	45.9	332.9	13.00	-137.0	0	34.3	27.2	32.8	0	154	0	0	0	34.8	33.2	0.0
2020 11/26 08:30	25.7	99.0	253.4	14.6	30.24	45.9	407.5	13.01	-137.0	0	34.7	27.2	33.1	0	154	0	0	0	34.8	33.3	0.0
2020 11/26 08:45	25.7	99.2	244.0	12.6	30.24	45.9	473.4	13.01	-137.0	0	34.8	27.2	32.7	0	154	0	0	0	34.9	33.3	0.0
2020 11/26 09:00	25.8	99.3	260.4	13.8	30.25	45.9	425.2	13.02	-137.0	0	34.8	27.2	33.3	0	154	0	0	0	34.9	33.3	0.0
2020 11/26 09:15	26.1	99.4	253.7	11.3	30.25	45.9	532.1	13.04	-137.0	0	34.7	28.1	33.9	0	154	0	0	0	34.9	33.4	0.0
2020 11/26 09:30	26.4	99.6	259.7	9.8	30.25	46.0	524.9	13.02	-137.0	0	34.8	28.1	34.8	0	154	0	0	0	35.0	33.5	0.0
2020 11/26 09:45	26.8	99.9	244.0	11.5	30.25	46.0	647.8	13.04	-137.0	0	34.7	28.1	35.4	0	154	0	0	0	35.1	33.6	0.0
2020 11/26 10:00	27.7	100.0	285.9	14.6	30.25	46.1	653.2	13.02	-137.0	0	34.6	28.1	34.4	0	154	0	0	0	35.3	34.0	0.0
2020 11/26 10:15	28.6	100.0	287.7	11.3	30.27	46.1	617.2	13.02	-137.0	0	34.5	29.0	37.7	0	154	0	0	0	35.5	34.5	0.0
2020 11/26 10:30	29.3	100.0	306.3	13.4	30.27	46.2	639.0	13.00	-137.0	0	34.6	29.0	36.3	0	154	0	0	0	35.7	34.9	0.0
2020 11/26 10:45	29.3	100.0	286.5	11.9	30.28	46.3	655.2	13.02	-137.0	0	34.5	29.0	36.6	0	154	0	0	0	35.8	35.0	0.0
2020 11/26 11:00	29.5	100.0	296.7	12.2	30.27	46.5	657.3	13.02	-137.0	0	34.4	29.0	35.1	0	154	0	0	0	36.5	35.7	0.0
2020 11/26 11:15	30.7	100.8	310.7	12.2	30.27	46.5	643.4	13.02	-137.0	0	34.2	29.0	34.8	0	154	0	0	0	37.1	37.0	0.0
2020 11/26 11:30	29.4	100.1	299.3	12.0	30.27	46.7	690.9	13.02	-136.9	0	34.5	29.0	35.2	0	154	0	0	0	37.8	38.5	0.0
2020 11/26 11:45	29.6	100.0	309.7	13.7	30.26	47.0	663.0	13.02	-136.9	0	34.3	30.8	36.0	0	154	0	0	0	38.1	39.0	0.0
2020 11/26 12:00	29.3	100.0	304.4	11.3	30.27	47.1	663.7	13.02	-136.9	0	34.3	30.8	37.3	0	154	0	0	0	38.8	39.8	0.0
2020 11/26 12:15	29.9	100.0	282.3	10.5	30.27	47.3	678.3	13.02	-136.9	0	33.9	33.5	37.7	0	154	0	0	0	39.5	40.6	0.0
2020 11/26 12:30	30.5	100.0	303.0	11.3	30.27	47.5	668.1	13.00	-136.7	0	33.8	33.5	37.9	0	154	0	0	0	39.8	40.8	0.0
2020 11/26 12:45	30.1	100.0	308.6	13.1	30.27	47.7	650.5	13.00	-136.7	0	33.6	33.5	37.7	0	154	0	0	0	40.5	41.0	0.0
2020 11/26 13:00	29.9	100.0	293.5	10.5	30.26	47.9	656.2	13.01	-136.7	0	33.9	32.6	39.7	0	154	0	0	0	41.3	41.3	0.0
2020 11/26 13:15	30.2	100.0	303.4	10.0	30.27	48.0	629.8	13.02	-136.7	0	34.1	31.7	38.4	0	154	0	0	0	41.6	41.3	0.0
2020 11/26 13:30	30.2	100.0	310.1	12.8	30.27	48.3	627.7	13.00	-136.6	0	34.3	30.8	39.7	0	154	0	0	0	42.0	41.2	0.0
2020 11/26 13:45	29.9	100.0	308.8	11.8	30.27	48.5	602.9	13.03	-136.6	0	34.1	31.7	39.5	0	154	0	0	0	42.1	41.2	0.0
2020 11/26 14:00	30.0	100.0	309.2	11.9	30.28	48.7	581.2	13.02	-136.6	0	34.1	30.8	38.6	0	154	0	0	0	42.2	41.0	0.0
2020 11/26 14:15	29.8	100.0	302.9	9.3	30.27	48.9	561.5	13.00	-136.5	0	34.1	30.8	37.2	0	154	0	0	0	42.7	40.7	0.0
2020 11/26 14:30	29.9	100.1	313.2	9.2	30.27	49.1	510.6	13.02	-136.5	0	34.4	29.9	37.1	0	154	0	0	0	46.2	40.4	0.0
2020 11/26 14:45	28.3	100.1	332.0	11.4	30.27	49.3	467.9	13.01	-136.5	0	34.2	29.9	36.7	0	154	0	0	0	48.2	40.3	0.0
2020 11/26 15:00	26.1	99.3	330.7	12.7	30.28	49.5	457.7	13.02	-136.4	0	34.2	29.9	37.1	0	154	0	0	0	52.7	39.8	0.0
2020 11/26 15:15	26.0	99.4	326.7	11.3	30.28	49.7	424.4	13.02	-136.4	0	34.3	29.0	35.1	0	154	0	0	0	56.5	39.4	0.0
2020 11/26 15:30	25.0	98.9	6.0	15.8	30.28	49.9	384.4	13.03	-136.4	0	34.2	29.0	36.4	0	154	0	0	0	58.6	38.9	0.0
2020 11/26 15:45	25.2	99.1	1.5	10.5	30.29	50.1	351.8	13.00	-136.2	0	34.3	28.1	35.2	0	154	0	0	0	58.5	38.7	0.0
2020 11/26 16:00	26.0	99.5	0.2	11.9	30.29	50.3	281.9	13.02	-136.2	0	34.3	27.2	33.1	0	154	0	0	0	58.3	38.4	0.0
2020 11/26 16:15	26.9	100.0	22.8	3.9	30.30	50.3	191.7	13.02	-136.2	0	34.3	27.2	33.7	0	154	0	0	0	58.4	38.0	0.0
2020 11/26 16:30	27.9	100.6	0.2	6.5	30.29	50.5	89.9	13.00	-136.2	0	34.3	27.2	34.8	0	154	0	0	0	61.2	37.6	0.0
2020 11/26 16:45	26.7	99.3	359.3	11.3	30.30	50.5	19.0	13.03	-136.1	0	34.2	27.2	34.2	0	154	0	0	0	61.2	37.6	0.0
2020 11/26 17:00	27.1	98.8	2.2	14.5	30.29	50.5	1.7	13.00	-136.1	0	34.3	26.3	33.2	0	154	0	0	0	64.1	37.2	0.0
2020 11/26 17:15	27.8	97.7	13.0	10.6	30.29	50.6	0.0	13.02	-136.2	0	34.2	27.2	30.7	0	154	0	0	0	66.1	37.0	0.0
2020 11/26 17:30	28.1	96.1	36.6	10.1	30.30	50.6	0.0	13.02	-136.2	0	34.2	27.2	29.6	0	154	0	0	0	67.7	36.8	0.0
2020 11/26 17:45	29.0	94.3	16.4	10.2	30.30	50.6	0.0	13.00	-136.2	0	34.5	26.3	28.7	0	154	0	0	0	68.3	36.7	0.0
2020 11/26 18:00	29.6	92.7	30.2	10.0	30.30	50.6	0.0	13.02	-136.2	0	34.5	27.2	25.9	0	154	0	0	0	68.3	36.7	0.0
2020 11/26 18:15	31.0	93.4	8.3	6.6	30.30	50.6	0.0	13.02	-136.2	0	33.9	28.1	25.5	0	154	0	0	0	69.0	36.2	0.0
2020 11/26 18:30	30.5	90.9	5.5	5.8	30.29	50.5	0.0	13.00	-136.2	0	34.3	29.0	23.7	0	154	0	0	0	69.0	36.0	0.0
2020 11/26 18:45	31.2	89.2	353.0	9.7	30.28	50.5	0.0	13.00	-136.2	0	34.3	29.0	23.2	0	154	0	0	0	69.2	35.9	0.0
2020 11/26 19:00	31.7	87.3	337.9	10.2	30.28	50.5	0.0	13.00	-136.2	0	34.6	29.0	23.5	0	154	0	0	0	70.2	35.7	0.0
2020 11/26 19:15	32.7	71.4	345.2	9.2	30.29	50.4	0.0	13.00	-136.2	0	34.0	29.9	21.0	0	154	0	0	0	71.0	35.4	0.0
2020 11/26 19:30	31.7	71.0	323.2	4.8	30.29	50.3	0.0	13.00	-136.4	0	34.0	29.0	20.0	0	154	0	0	0	71.5	35.2	0.0
2020 11/26 19:45	31.3	58.3	327.5	7.2	30.29	50.3	0.0	13.03	-136.4	0	34.1	29.9	19.4	0	154	0	0	0	71.9	35.1	0.0
2020 11/26 20:00	30.4	60.1	276.2	4.8	30.29	50.2	0.0	13.00	-136.4	0	34.0	29.9	18.0	0	154	0	0	0	72.7	34.9	0.0
2020 11/26 20:15	31.9	53.3	321.8	9.4	30.29	50.1	0.0	13.02	-136.4	0	33.8	29.9	17.9	0	154	0	0	0	73.0	34.8	0.0
2020 11/26 20:30	31.7	55.4	315.7	8.7	30.29	50.1	0.0	13.02	-136.4	0	34.2	30.8	17.2	0	154	0	0	0	73.2	34.5	0.0
2020 11/26 20:45	31.8	52.5	308.3	7.4	30.28	50.0	0.0	13.01	-136.4	0	34.3	30.8	17.0	0	154	0	0	0	73.1	34.4	0.0
2020 11/26 21:00	31.9	54.2	305.2	8.1	30.28	49.9	0.0	13.01	-136.4	0	33.8	30.8	16.7	0	154	0	0	0	72.9	34.2	0.0
2020 11/26 21:15	31.6	53.1	290.3	8.1	30.28	49.9	0.0	13.00	-136.5	0	33.8	30.8	15.6	0	154	0	0	0	72.7	34.1	0.0
2020 11/26 21:30	31.3	47.8	259.0	6.6	30.28	49.7	0.0	13.02	-136.5	0	33.7	30.8	15.3	0	154	0	0	0	72.0	33.9	0.0
2020 11/26 21:45	31.3	46.1	271.2	6.9	30.28	49.6	0.0	13.01	-136.5	0	34.0	29.0	14.6	0	154	0	0	0	71.5	33.9	0.0
2020 11/26 22:00	31.7	43.2	251.5	8.7	30.28	49.7	0.0	13.00	-136.5	0	33.4	29.9	14.6	0	154	0	0	0	70.5	33.6	0.0
2020 11/26 22:15	32.2	43.2	269.4	8.3	30.28	49.5	0.0	13.01	-136.5	0	33.8	29.9	14.1	0	154	0	0	0	70.4	33.5	0.0
2020 11/26 22:30	31.9	43.6	278.0	8.8	30.28	49.5	0.0	13.00	-136.6	0	33.8	29.9	13.8	0	154	0	0	0	70.5	33.4	0.0
2020 11/26 22:45	32.1	44.0	276.2	8.6	30.28	49.4	0.0	13.02	-136.6	0	34.0	29.9	12.8	0	154	0	0	0	70.5	33.3	0.0
2020 11/26 23:00	32.4	42.8	250.5	8.0	30.27	49.3	0.0	13.02	-136.6	0	33.5	29.9	12.9	0	154	0	0	0	70.5	33.2	0.0
2020 11/26 23:15	32.4	41.3	241.8	6.7	30.27	49.2	0.0	13.00	-136.6	0	34.1	30.8	12.7	0	154	0	0	0	70.5	33.1	0.0
2020 11/26 23:30	32.7	42.4	245.2	7.2	30.27	49.1	0.0	13.04	-136.6	0	33.8	30.8	13.5	0	154	0	0	0	70.4	33.0	0.0
2020 11/26 23:45	33.2	41.9	243.1	8.3	30.27	49.0	0.0	13.01	-136.6	0	33.8	29.9	12.5	0	154	0	0	0	70.2	32.9	0.0
2020 11/27 00:00	33.5	41.9	235.3	9.8	30.27	49.0	0.0	13.02	-136.6	0	34.0	30.8	12.3	0	154	0	0	0	70.0	32.7	0.0
2020 11/27 00:15	33.5	42.3	228.6	9.1	30.27	48.9	0.0	13.02	-136.7	0	33.7	31.7	11.9	0	154	0	0	0	69.2	32.6	0.0
2020 11/27 00:30	33.6	41.2	243.9	7.8	30.27	48.9	0.0	13.00	-136.7	0	-997.0	-997.0	11.9	0	154	0	0	0	69.0	32.5	0.0
2020 11/27 00:45	33.6	41.0	240.9	9.4	30.26	48.8	0.0	13.00	-136.7	0	33.7	30.8	11.7	0	154	0	0	0	68.4	32.5	0.0
2020 11/27 01:00	34.0	34.1	234.7	10.6	30.25	48.8	0.0	13.02	-136.7	0	34.0	31.7	10.9	0	154	0	0	0	67.7	32.4	0.0
2020 11/27 01:15	33.2	45.8	226.2	11.3	30.25	48.7	0.0	13.02	-136.7	0	33.5	31.7	10.7	0	154	0	0	0	67.3	32.3	0.0
2020 11/27 01:30	32.2	52.6	233.1	11.3	30.25	48.6	0.0	13.02	-136.7	0	33.4	31.7	10.1	0	154	0	0	0	66.8	32.2	0.0
2020 11/27 01:45	32.1	54.1	239.5	11.7	30.25	48.6	0.0	13.03	-136.7	0	33.6	32.6	10.5	0	154	0	0	0	66.3	32.1	0.0
2020 11/27 02:00	32.2	51.8	231.4	10.1	30.25	48.6	0.0	13.00	-136.7	0	33.4	32.6	10.0	0	154	0	0	0	65.9	32.0	0.0
2020 11/27 02:15	32.3	49.8	222.8	10.1	30.25	48.5	0.0	13.00	-136.7	0	33.6	32.6	9.9	0	154	0	0	0	65.4	32.0	0.0
2020 11/27 02:30	32.2	50.3	240.5	10.5	30.25	48.5	0.0	13.02	-136.7	0	34.0	31.7	8.9	0	154	0	0	0	64.9	31.8	0.0
2020 11/27 02:45	32.2	51.2	227.1	12.1	30.25	48.4	0.0	13.02	-136.7	0	33.2	33.5	9.3	0	154	0	0	0	65.0	31.7	0.0
2020 11/27 03:00	32.2	50.8	230.6	12.6	30.24	48.4	0.0	13.02	-136.9	0	33.4	33.5	8.4	0	154	0	0	0	65.5	31.6	0.0
2020 11/27 03:15	32.1	48.5	238.3	12.1	30.24	48.4	0.0	13.02	-136.9	0	33.2	33.5	7.9	0	154	0	0	0	66.0	31.5	0.0
2020 11/27 03:30	32.8	44.5	229.2	14.5	30.24	48.3	0.0	13.00	-136.9	0	33.5	33.5	8.0	0	154	0	0	0	66.3	31.4	0.0
2020 11/27 03:45	32.7	46.8	227.5	13.9	30.24	48.2	0.0	13.02	-136.9	0	33.6	33.5	8.1	0	154	0	0	0	66.3	31.3	0.0
2020 11/27 04:00	32.7	42.1	227.0	14.2	30.23	48.2	0.0	13.02	-136.9	0	33.2	32.6	8.1	0	154	0	0	0	66.4	31.3	0.0
2020 11/27 04:15	32.8	39.1	226.7	13.3	30.23	48.2	0.0	13.02	-136.9	0	33.4	33.5	7.2	0	154	0	0	0	66.3	31.2	0.0
2020 11/27 04:30	33.8	33.8	221.0	14.5	30.22	48.1	0.0	13.01	-136.9	0	33.1	34.4	7.0	0	154	0	0	0	66.3	31.1	0.0
2020 11/27 04:45	34.9	26.1	226.9	13.1	30.22	48.0	0.0	13.02	-136.9	0	33.1	34.4	6.6	0	154	0	0	0	66.1	31.1	0.0
2020 11/27 05:00	35.9	53.8	229.5	11.3	30.22	48.0	0.0	13.01	-136.9	0	33.1	34.4	7.1	0	154	0	0	0	65.5	30.9	0.0
2020 11/27 05:15	36.1	54.1	237.8	11.7	30.22	47.9	0.0	13.00	-137.0	0	33.2	35.3	6.8	0	154	0	0	0	64.6	30.8	0.0
2020 11/27 05:30	37.7	55.8	232.0	12.0	30.22	47.8	0.0	13.00	-137.0	0	33.6	36.2	7.1	0	154	0	0	0	64.2	30.7	0.0
2020 11/27 05:45	36.7	55.2	233.6	11.4	30.22	47.8	0.0	13.02	-136.9	0	33.3	36.2	7.0	0	154	0	0	0	65.1	30.6	0.0
2020 11/27 06:00	37.0	55.1	230.0	12.7	30.21	47.8	0.0	13.02	-137.0	0	33.1	34.4	6.3	0	154	0	0	0	65.8	30.6	0.0
2020 11/27 06:15	37.2	59.5	226.2	15.1	30.21	47.8	0.0	13.01	-137.0	0	33.5	36.2	6.4	0	154	0	0	0	66.3	30.5	0.0
2020 11/27 06:30	38.4	56.3	226.9	14.0	30.21	47.8	0.0	13.00	-137.0	0	33.8	37.1	6.5	0	154	0	0	0	66.4	30.4	0.0
2020 11/27 06:45	38.1	44.1	222.8	12.7	30.21	47.8	0.3	13.00	-137.0	0	33.5	36.2	7.2	0	154	0	0	0	66.1	30.4	0.0
2020 11/27 07:00	38.2	41.8	225.3	12.1	30.21	47.8	7.5	13.02	-137.0	0	33.0	35.3	7.3	0	154	0	0	0	65.6	30.4	0.0
2020 11/27 07:15	38.8	35.1	221.1	11.1	30.22	47.8	59.7	13.00	-136.9	0	33.0	37.1	6.4	0	154	0	0	0	65.4	30.3	0.0
2020 11/27 07:30	41.4	23.4	208.1	10.9	30.21	47.8	185.3	13.02	-136.9	0	33.0	36.2	6.2	0	154	0	0	0	65.4	30.3	0.0
2020 11/27 07:45	40.4	23.6	221.9	9.4	30.22	47.7	313.5	13.00	-137.0	0	33.4	36.2	7.7	0	154	0	0	0	65.4	30.3	0.0
2020 11/27 08:00	40.9	22.3	232.6	8.2	30.22	47.6	409.2	13.00	-137.0	0	33.5	36.2	7.0	0	154	0	0	0	65.5	30.0	0.0
2020 11/27 08:15	41.6	19.4	229.4	9.3	30.22	47.7	478.8	13.02	-137.0	0	33.3	38.0	8.8	0	154	0	0	0	66.0	30.0	0.0
2020 11/27 08:30	40.9	20.1	237.4	10.2	30.22	47.8	529.7	13.00	-137.0	0	33.7	38.9	10.4	0	154	0	0	0	66.3	30.0	0.0
2020 11/27 08:45	42.6	19.1	218.6	9.5	30.23	47.8	570.1	13.00	-136.9	0	33.4	38.9	12.5	0	154	0	0	0	66.8	30.0	0.0
2020 11/27 09:00	41.6	17.4	229.6	8.6	30.23	47.9	531.7	13.02	-136.9	0	33.3	41.6	13.4	0	154	0	0	0	67.7	30.2	0.0
2020 11/27 09:15	42.6	14.6	225.9	10.5	30.23	48.0	643.3	13.03	-136.9	0	33.0	41.6	15.4	0	154	0	0	0	69.0	30.3	0.0
2020 11/27 09:30	43.3	14.1	229.7	10.2	30.23	48.0	620.3	13.00	-136.9	0	32.8	40.7	17.0	0	154	0	0	0	70.6	30.8	0.0
2020 11/27 09:45	43.5	11.8	225.2	11.3	30.23	48.1	638.9	13.00	-136.9	0	33.1	41.6	18.8	0	154	0	0	0	71.5	31.2	0.0
2020 11/27 10:00	43.3	12.1	228.2	10.5	30.23	48.2	670.8	13.00	-136.9	0	33.1	41.6	20.7	0	154	0	0	0	73.5	32.3	0.0
2020 11/27 10:15	43.4	12.2	214.2	10.5	30.23	48.4	690.2	13.00	-136.9	0	33.5	42.5	23.5	0	154	0	0	0	75.3	33.4	0.0
2020 11/27 10:30	43.3	11.3	218.6	10.9	30.23	48.6	705.0	13.00	-136.9	0	33.3	43.4	25.5	0	154	0	0	0	76.7	34.8	0.0
2020 11/27 10:45	43.4	13.1	222.8	10.8	30.24	48.8	699.3	13.00	-136.7	0	33.3	43.4	26.7	0	154	0	0	0	78.0	36.2	0.0
2020 11/27 11:00	43.3	15.1	222.6	10.6	30.24	49.1	682.6	13.00	-136.7	0	33.6	43.4	28.2	0	154	0	0	0	79.0	37.6	0.0
2020 11/27 11:15	43.5	13.5	222.8	11.5	30.23	49.3	673.8	13.01	-136.7	0	33.1	44.3	29.9	0	154	0	0	0	79.8	38.9	0.0
2020 11/27 11:30	44.1	13.1	222.4	11.8	30.23	49.3	696.2	13.01	-136.6	0	33.4	44.3	30.9	0	154	0	0	0	80.2	40.0	0.0
2020 11/27 11:45	44.0	14.7	203.2	11.8	30.22	49.1	743.0	13.02	-136.7	0	33.2	45.2	32.1	0	154	0	0	0	80.4	40.6	0.0
2020 11/27 12:00	44.5	14.1	199.2	11.5	30.21	48.8	737.0	13.01	-136.7	0	32.7	47.9	32.8	0	154	0	0	0	80.8	41.5	0.0
2020 11/27 12:15	44.8	13.9	203.5	12.5	30.20	48.7	711.0	13.02	-136.9	0	32.6	48.8	33.5	0	154	0	0	0	81.0	42.5	0.0
2020 11/27 12:30	45.0	14.1	204.1	10.7	30.20	48.6	730.0	13.00	-136.9	0	32.6	50.6	34.6	0	154	0	0	0	81.1	43.0	0.0
2020 11/27 12:45	45.3	15.0	215.8	12.2	30.19	48.6	715.0	13.00	-136.9	0	32.1	50.6	35.0	0	154	0	0	0	82.2	43.2	0.0
2020 11/27 13:00	46.2	15.5	213.9	10.7	30.19	48.6	714.0	13.02	-136.9	0	32.7	49.7	35.1	0	154	0	0	0	83.1	43.4	0.0
2020 11/27 13:15	45.3	15.7	227.9	10.5	30.19	48.8	691.5	13.03	-136.9	0	32.9	50.6	36.1	0	154	0	0	0	84.3	43.7	0.0
2020 11/27 13:30	45.3	12.6	225.8	12.5	30.19	49.1	677.9	13.00	-136.9	0	33.1	49.7	36.4	0	154	0	0	0	85.0	44.0	0.0
2020 11/27 13:45	45.6	12.6	222.9	13.5	30.19	49.3	586.3	13.02	-136.9	0	32.9	48.8	36.0	0	154	0	0	0	85.3	44.1	0.0
2020 11/27 14:00	45.5	12.6	215.7	15.7	30.18	49.4	582.5	13.02	-136.7	0	32.5	49.7	35.3	0	154	0	0	0	85.6	44.0	0.0
2020 11/27 14:15	45.7	13.9	230.9	14.7	30.17	49.1	519.4	13.02	-136.7	0	32.1	49.7	34.1	0	154	0	0	0	85.8	43.9	0.0
2020 11/27 14:30	46.2	15.1	204.1	15.8	30.16	48.4	611.7	13.02	-136.9	0	32.7	48.8	33.4	0	154	0	0	0	86.2	44.0	0.0
2020 11/27 14:45	45.8	15.5	229.3	15.1	30.15	47.6	606.0	13.00	-137.0	0	32.7	47.9	32.2	0	154	0	0	0	86.3	43.8	0.0
2020 11/27 15:00	46.1	11.3	215.6	16.8	30.14	46.9	580.2	13.02	-137.1	0	32.7	45.2	31.3	0	154	0	0	0	86.2	43.3	0.0
2020 11/27 15:15	46.1	12.4	226.7	15.1	30.13	46.3	554.1	12.99	-137.1	0	32.7	46.1	30.8	0	154	0	0	0	85.6	42.7	0.0
2020 11/27 15:30	46.4	11.2	225.3	15.4	30.12	45.9	517.5	13.01	-137.2	0	32.9	45.2	29.4	0	154	0	0	0	84.8	42.2	0.0
2020 11/27 15:45	46.6	9.9	201.3	15.4	30.12	45.9	491.0	13.02	-137.2	0	-997.0	-997.0	29.0	0	154	0	0	0	84.5	42.0	0.0
2020 11/27 16:00	46.3	12.7	207.0	15.2	30.12	46.1	377.0	12.99	-137.2	0	32.9	44.3	27.3	0	154	0	0	0	83.7	41.4	0.0
2020 11/27 16:15	46.5	10.6	213.8	15.5	30.13	46.5	242.6	13.02	-137.2	0	33.3	44.3	25.8	0	154	0	0	0	83.1	40.8	0.0
2020 11/27 16:30	46.5	12.1	214.2	13.5	30.13	47.0	117.4	13.00	-137.1	0	32.7	44.3	26.9	0	154	0	0	0	82.2	40.3	0.0
2020 11/27 16:45	46.7	11.2	226.2	11.3	30.13	47.4	27.8	13.00	-137.1	0	32.8	43.4	24.4	0	154	0	0	0	81.3	39.7	0.0
2020 11/27 17:00	48.4	11.8	238.9	10.6	30.14	48.1	2.7	13.02	-137.0	0	33.3	41.6	23.1	0	154	0	0	0	80.3	39.3	0.0
2020 11/27 17:15	47.0	12.5	242.3	11.9	30.15	48.6	0.0	13.00	-136.9	0	33.1	41.6	22.7	0	154	0	0	0	79.0	38.8	0.0
2020 11/27 17:30	46.2	13.2	251.3	11.8	30.15	49.3	0.0	13.00	-136.7	0	32.9	41.6	21.0	0	154	0	0	0	79.0	38.4	0.0
2020 11/27 17:45	46.6	12.2	231.5	12.7	30.16	49.9	0.0	12.99	-136.6	0	33.3	42.5	20.0	0	154	0	0	0	79.1	38.1	0.0
2020 11/27 18:00	46.4	13.0	238.9	12.6	30.17	50.6	0.0	13.00	-136.5	0	32.7	43.4	19.6	0	154	0	0	0	79.5	37.7	0.0
2020 11/27 18:15	46.0	15.0	234.9	14.5	30.17	51.1	0.0	12.99	-136.4	0	33.4	43.4	18.7	0	154	0	0	0	79.1	37.4	0.0
2020 11/27 18:30	44.9	19.9	230.2	15.5	30.17	51.8	0.0	13.01	-136.2	0	33.2	43.4	18.5	0	154	0	0	0	78.5	37.0	0.0
2020 11/27 18:45	44.3	21.6	229.1	16.6	30.17	52.2	0.0	13.01	-136.1	0	33.2	42.5	17.3	0	154	0	0	0	79.4	36.7	0.0
2020 11/27 19:00	44.0	22.1	228.2	16.6	30.17	52.7	0.0	13.01	-136.0	0	33.1	42.5	16.8	0	154	0	0	0	80.4	36.3	0.0
2020 11/27 19:15	44.1	19.9	234.2	17.9	30.18	53.1	0.0	13.02	-135.9	0	33.5	41.6	19.6	0	154	0	0	0	80.8	36.0	0.0
2020 11/27 19:30	44.1	17.9	233.9	19.9	30.18	53.5	0.0	13.02	-135.8	0	33.3	41.6	32.0	0	154	0	0	0	80.7	35.7	0.0
2020 11/27 19:45	43.8	19.3	236.0	19.5	30.19	53.9	0.0	13.01	-135.6	0	33.4	41.6	34.9	0	154	0	0	0	80.5	35.5	0.0
2020 11/27 20:00	43.7	19.1	226.6	20.9	30.19	54.1	0.0	13.00	-135.5	0	33.1	41.6	36.1	0	154	0	0	0	80.0	35.3	0.0
2020 11/27 20:15	43.5	17.7	233.5	21.1	30.19	54.4	0.0	13.02	-135.5	0	33.1	41.6	36.4	0	154	0	0	0	78.9	35.1	0.0
2020 11/27 20:30	42.8	21.5	242.7	17.6	30.20	54.6	0.0	13.02	-135.4	0	33.2	40.7	37.7	0	154	0	0	0	78.0	34.9	0.0
2020 11/27 20:45	42.1	24.1	246.5	16.7	30.20	54.9	0.0	13.00	-135.4	0	33.3	39.8	37.2	0	154	0	0	0	77.1	34.8	0.0
2020 11/27 21:00	42.1	25.6	234.9	15.2	30.21	55.1	0.0	13.02	-135.3	0	33.1	38.9	35.8	0	154	0	0	0	75.7	34.5	0.0
2020 11/27 21:15	40.4	26.1	239.5	14.9	30.21	55.3	0.0	13.01	-135.1	0	33.4	38.9	36.9	0	154	0	0	0	74.8	34.3	0.0
2020 11/27 21:30	40.5	24.4	232.2	16.1	30.21	55.4	0.0	13.01	-135.1	0	33.2	39.8	39.1	0	154	0	0	0	74.1	34.2	0.0
2020 11/27 21:45	40.1	25.3	254.2	15.2	30.21	55.6	0.0	13.00	-135.0	0	33.1	39.8	37.7	0	154	0	0	0	73.7	34.1	0.0
2020 11/27 22:00	39.0	31.1	260.6	14.9	30.22	55.9	0.0	12.99	-134.9	0	33.1	38.0	38.5	0	154	0	0	0	74.1	33.9	0.0
2020 11/27 22:15	38.5	25.5	279.5	15.8	30.22	56.1	0.0	13.01	-134.9	0	33.5	36.2	39.3	0	154	0	0	0	74.5	33.6	0.0
2020 11/27 22:30	36.7	32.0	274.0	11.7	30.23	56.2	0.0	12.99	-134.8	0	-997.0	-997.0	39.0	0	154	0	0	0	74.8	33.6	0.0
2020 11/27 22:45	36.5	31.2	284.6	13.1	30.23	56.3	0.0	13.01	-134.8	0	33.2	35.3	38.4	0	154	0	0	0	75.5	33.4	0.0
2020 11/27 23:00	38.2	28.5	273.6	15.8	30.23	56.5	0.0	13.01	-134.8	0	33.1	35.3	38.0	0	154	0	0	0	76.2	33.3	0.0
2020 11/27 23:15	37.0	25.1	280.2	16.8	30.23	56.5	0.0	13.01	-134.7	0	33.2	34.4	38.1	0	154	0	0	0	76.7	33.2	0.0
2020 11/27 23:30	36.3	27.1	270.8	15.9	30.23	56.7	0.0	13.01	-134.7	0	33.1	34.4	37.5	0	154	0	0	0	77.1	33.2	0.0
2020 11/27 23:45	35.9	29.1	271.2	13.7	30.24	56.7	0.0	13.02	-134.7	0	33.2	33.5	37.3	0	154	0	0	0	77.1	33.0	0.0
2020 11/28 00:00	36.2	27.9	241.1	14.7	30.23	56.8	0.0	13.02	-134.5	0	33.1	34.4	37.6	0	154	0	0	0	76.7	32.9	0.0
2020 11/28 00:15	37.3	22.5	225.8	17.8	30.23	56.9	0.0	13.01	-134.5	0	33.1	34.4	36.0	0	154	0	0	0	76.3	32.9	0.0
2020 11/28 00:30	37.0	24.4	251.0	16.5	30.23	56.9	0.0	13.01	-134.5	0	33.2	35.3	35.0	0	154	0	0	0	74.8	32.7	0.0
2020 11/28 00:45	37.8	26.5	240.3	17.4	30.23	56.9	0.0	13.01	-134.5	0	33.2	34.4	34.3	0	154	0	0	0	74.4	32.7	0.0
2020 11/28 01:00	35.6	33.5	250.3	16.7	30.22	56.9	0.0	12.99	-134.5	0	33.6	34.4	35.0	0	154	0	0	0	73.7	32.6	0.0
2020 11/28 01:15	35.6	38.4	243.2	14.7	30.22	56.9	0.0	13.02	-134.5	0	33.3	35.3	33.7	0	154	0	0	0	72.9	32.5	0.0
2020 11/28 01:30	36.6	44.0	246.4	15.7	30.23	57.0	0.0	13.01	-134.5	0	33.1	35.3	35.0	0	154	0	0	0	72.0	32.5	0.0
2020 11/28 01:45	35.0	42.8	237.7	16.1	30.22	57.1	0.0	13.02	-134.5	0	33.2	34.4	33.7	0	154	0	0	0	71.9	32.4	0.0
2020 11/28 02:00	34.5	50.8	250.5	16.5	30.22	57.1	0.0	13.00	-134.5	0	33.2	34.4	34.1	0	154	0	0	0	72.2	32.4	0.0
2020 11/28 02:15	34.6	47.7	227.2	18.4	30.22	57.1	0.0	13.02	-134.5	0	32.8	34.4	34.3	0	154	0	0	0	72.5	32.3	0.0
2020 11/28 02:30	34.1	57.0	238.5	18.8	30.23	57.1	0.0	13.00	-134.5	0	33.4	33.5	34.3	0	154	0	0	0	72.5	32.3	0.0
2020 11/28 02:45	34.6	48.1	240.0	16.6	30.23	57.1	0.0	12.99	-134.5	0	33.2	32.6	33.7	0	154	0	0	0	72.7	32.3	0.0
2020 11/28 03:00	34.4	53.3	250.3	15.5	30.23	57.1	0.0	13.02	-134.5	0	33.1	32.6	33.2	0	154	0	0	0	73.0	32.3	0.0
2020 11/28 03:15	33.4	54.8	263.5	15.8	30.23	56.9	0.0	13.00	-134.7	0	33.3	31.7	33.3	0	154	0	0	0	73.2	32.2	0.0
2020 11/28 03:30	34.3	42.2	257.7	15.4	30.23	56.9	0.0	13.00	-134.7	0	33.2	31.7	32.7	0	154	0	0	0	73.2	32.2	0.0
2020 11/28 03:45	33.9	48.5	237.1	16.7	30.22	56.9	0.0	13.01	-134.7	0	33.2	33.5	33.0	0	154	0	0	0	73.0	32.1	0.0
2020 11/28 04:00	33.8	47.4	240.0	13.9	30.22	56.9	0.0	13.03	-134.8	0	33.3	33.5	32.1	0	154	0	0	0	72.7	32.1	0.0
2020 11/28 04:15	33.4	45.9	229.1	17.3	30.21	56.9	0.0	13.02	-134.8	0	32.9	33.5	32.2	0	154	0	0	0	72.1	32.0	0.0
2020 11/28 04:30	33.4	44.9	233.6	17.9	30.22	56.7	0.0	13.01	-134.8	0	33.0	33.5	32.1	0	154	0	0	0	71.3	32.0	0.0
2020 11/28 04:45	33.9	38.1	227.3	20.5	30.22	56.7	0.0	12.99	-134.8	0	-997.0	-997.0	32.8	0	154	0	0	0	70.8	32.0	0.0
2020 11/28 05:00	34.0	37.3	234.4	20.2	30.22	56.7	0.0	12.99	-134.9	0	33.3	33.5	33.1	0	154	0	0	0	69.8	31.8	0.0
2020 11/28 05:15	33.6	38.7	241.8	18.2	30.23	56.5	6.1	13.01	-135.0	0	33.2	31.7	32.5	0	154	0	0	0	69.3	31.8	0.0
2020 11/28 05:30	32.4	50.2	263.5	15.8	30.24	56.5	0.0	12.99	-135.0	0	-997.0	-997.0	34.3	0	154	0	0	0	68.4	31.7	0.0
2020 11/28 05:45	32.7	50.6	256.4	17.2	30.24	56.3	0.0	13.02	-135.1	0	33.1	30.8	32.6	0	154	0	0	0	69.9	31.6	0.0
2020 11/28 06:00	32.1	55.8	254.9	16.0	30.23	56.3	0.0	13.01	-135.1	0	33.0	31.7	34.0	0	154	0	0	0	70.3	31.6	0.0
2020 11/28 06:15	32.3	52.2	231.9	19.3	30.23	56.1	0.0	13.00	-135.1	0	33.4	32.6	33.2	0	154	0	0	0	71.7	31.5	0.0
2020 11/28 06:30	31.6	58.6	232.2	20.5	30.23	56.1	0.0	12.99	-135.3	0	32.9	32.6	34.0	0	154	0	0	0	72.1	31.5	0.0
2020 11/28 06:45	30.8	60.3	231.8	12.4	30.25	55.9	0.0	12.99	-135.3	0	33.1	31.7	34.1	0	154	0	0	0	72.3	31.7	0.0
2020 11/28 07:00	31.7	56.9	221.8	18.9	30.24	55.9	4.8	13.00	-135.4	0	33.2	31.7	34.6	0	154	0	0	0	73.1	31.7	0.0
2020 11/28 07:15	32.1	58.5	233.5	16.4	30.25	55.6	54.3	13.01	-135.4	0	33.0	32.6	33.7	0	154	0	0	0	73.7	31.7	0.0
2020 11/28 07:30	31.8	59.2	200.5	15.3	30.25	55.6	147.2	13.01	-135.5	0	33.0	33.5	35.3	0	154	0	0	0	73.9	31.7	0.0
2020 11/28 07:45	32.1	56.3	218.3	15.1	30.25	55.4	178.8	13.01	-135.5	0	33.2	34.4	35.4	0	154	0	0	0	73.9	31.7	0.0
2020 11/28 08:00	32.7	51.3	208.4	20.1	30.25	55.3	309.8	12.99	-135.6	0	32.9	35.3	36.2	0	154	0	0	0	74.0	31.8	0.0
2020 11/28 08:15	33.2	45.5	216.1	22.2	30.24	55.2	409.5	13.02	-135.6	0	33.1	36.2	37.1	0	154	0	0	0	73.9	32.0	0.0
2020 11/28 08:30	33.9	34.9	214.6	20.8	30.25	55.0	440.7	13.01	-135.8	0	33.1	36.2	36.4	0	154	0	0	0	73.6	32.1	0.0
2020 11/28 08:45	34.4	30.5	226.3	19.6	30.24	54.8	489.6	13.00	-135.9	0	33.0	37.1	36.8	0	154	0	0	0	73.2	32.1	0.0
2020 11/28 09:00	34.4	31.3	253.2	16.0	30.25	54.4	500.4	12.99	-135.9	0	32.9	34.4	36.7	0	154	0	0	0	73.4	32.2	0.0
2020 11/28 09:15	31.9	48.5	284.3	12.5	30.27	54.1	386.4	13.00	-136.0	0	32.8	34.4	37.5	0	154	0	0	0	73.8	32.4	0.0
2020 11/28 09:30	33.6	38.7	289.2	16.4	30.27	54.0	421.0	13.00	-136.0	0	33.0	34.4	38.2	0	154	0	0	0	74.8	32.6	0.0
2020 11/28 09:45	33.3	43.2	263.8	13.3	30.28	53.9	528.6	13.01	-136.0	0	33.0	34.4	38.4	0	154	0	0	0	74.8	32.6	0.0
2020 11/28 10:00	34.0	69.1	251.5	13.8	30.27	53.7	599.5	13.01	-136.0	0	-997.0	-997.0	39.0	0	154	0	0	0	75.6	32.9	0.0
2020 11/28 10:15	34.8	58.8	248.7	13.8	30.27	53.7	721.0	13.01	-136.0	0	32.9	39.8	42.6	0	154	0	0	0	77.2	34.1	0.0
2020 11/28 10:30	35.5	44.0	240.5	12.9	30.27	53.7	646.3	13.03	-136.0	0	-997.0	-997.0	43.2	0	154	0	0	0	77.5	34.5	0.0
2020 11/28 10:45	34.8	63.5	253.3	13.8	30.27	53.7	579.5	13.02	-135.9	0	-997.0	-997.0	41.2	0	154	0	0	0	77.6	34.9	0.0
2020 11/28 11:00	35.1	68.1	240.5	13.2	30.28	53.7	688.7	13.01	-135.9	0	-997.0	-997.0	41.4	0	154	0	0	0	78.0	35.8	0.0
2020 11/28 11:15	35.5	70.9	277.0	10.5	30.28	53.7	688.0	13.02	-135.9	0	33.0	38.9	41.6	0	154	0	0	0	78.2	36.5	0.0
2020 11/28 11:30	35.9	72.9	262.1	12.0	30.28	53.7	734.0	13.00	-135.9	0	-997.0	-997.0	42.7	0	154	0	0	0	78.9	38.1	0.0
2020 11/28 11:45	35.4	78.5	268.7	12.5	30.27	53.9	725.0	13.00	-135.8	0	-997.0	-997.0	43.1	0	154	0	0	0	79.1	38.8	0.0
2020 11/28 12:00	35.9	75.1	279.4	11.5	30.27	53.9	722.0	13.01	-135.8	0	32.4	42.5	43.4	0	154	0	0	0	79.8	40.5	0.0
2020 11/28 12:15	36.5	77.5	259.0	15.4	30.27	54.1	716.0	13.01	-135.8	0	32.0	44.3	43.4	0	154	0	0	0	79.9	41.1	0.0
2020 11/28 12:30	36.3	73.4	279.7	11.7	30.28	54.1	694.1	12.99	-135.6	0	32.0	45.2	43.9	0	154	0	0	0	79.9	42.0	0.0
2020 11/28 12:45	36.6	74.2	268.8	12.7	30.28	54.2	680.6	13.00	-135.6	0	31.8	46.1	45.2	0	154	0	0	0	80.0	42.4	0.0
2020 11/28 13:00	36.5	75.3	283.0	10.7	30.28	54.4	670.1	13.01	-135.5	0	32.0	44.3	44.2	0	154	0	0	0	80.0	42.9	0.0
2020 11/28 13:15	37.7	74.9	276.3	11.4	30.28	54.4	656.1	13.01	-135.6	0	32.1	44.3	45.3	0	154	0	0	0	80.0	43.1	0.0
2020 11/28 13:30	37.2	73.4	289.7	7.7	30.29	54.6	650.7	13.00	-135.6	0	32.5	42.5	45.6	0	154	0	0	0	79.9	43.4	0.0
2020 11/28 13:45	37.3	72.5	267.5	9.4	30.29	54.6	633.4	13.01	-135.8	0	32.6	42.5	44.4	0	154	0	0	0	79.9	43.8	0.0
2020 11/28 14:00	37.7	71.0	282.5	8.0	30.29	54.8	632.4	12.99	-135.8	0	32.1	44.3	44.2	0	154	0	0	0	79.8	43.9	0.0
2020 11/28 14:15	38.0	68.7	269.8	7.4	30.29	55.0	611.7	13.01	-135.8	0	31.9	45.2	42.5	0	154	0	0	0	80.1	44.1	0.0
2020 11/28 14:30	38.3	69.3	310.0	8.2	30.29	55.0	605.6	13.03	-135.8	0	32.0	45.2	42.3	0	154	0	0	0	80.8	44.2	0.0
2020 11/28 14:45	38.2	70.0	323.3	3.1	30.29	55.0	592.4	13.01	-135.8	0	31.6	45.2	41.8	0	154	0	0	0	81.7	44.2	0.0
2020 11/28 15:00	37.6	70.6	269.5	5.9	30.30	55.0	580.8	13.00	-135.8	0	32.0	43.4	40.2	0	154	0	0	0	82.8	44.0	0.0
2020 11/28 15:15	37.9	73.3	300.0	4.5	30.30	55.0	556.1	13.00	-135.9	0	31.8	42.5	39.1	0	154	0	0	0	83.7	43.4	0.0
2020 11/28 15:30	38.2	69.5	215.2	0.2	30.31	55.0	542.5	13.01	-135.9	0	32.2	38.0	38.6	0	154	0	0	0	84.6	43.0	0.0
2020 11/28 15:45	37.4	73.8	270.0	1.2	30.30	55.0	489.6	13.00	-135.9	0	32.1	37.1	36.8	0	154	0	0	0	85.0	42.7	0.0
2020 11/28 16:00	37.2	75.0	271.3	0.0	30.30	54.8	433.2	13.00	-135.9	0	32.5	36.2	36.3	0	154	0	0	0	85.5	42.2	0.0
2020 11/28 16:15	37.8	73.9	126.8	2.6	30.30	54.7	327.4	13.00	-136.0	0	32.5	35.3	35.1	0	154	0	0	0	86.0	41.6	0.0
2020 11/28 16:30	36.7	76.7	139.9	3.8	30.29	54.6	161.5	13.00	-136.0	0	32.5	34.4	33.9	0	154	0	0	0	86.1	41.1	0.0
2020 11/28 16:45	36.7	81.6	100.3	2.9	30.29	54.4	40.0	13.01	-136.1	0	32.5	34.4	33.4	0	154	0	0	0	85.7	40.6	0.0
2020 11/28 17:00	36.8	84.3	84.6	4.4	30.30	54.4	4.8	13.01	-136.1	0	32.2	34.4	31.6	0	154	0	0	0	84.9	40.0	0.0
2020 11/28 17:15	37.0	83.8	91.5	3.4	30.30	54.3	0.7	13.01	-136.1	0	32.4	34.4	30.7	0	154	0	0	0	83.6	39.6	0.0
2020 11/28 17:30	37.0	82.9	79.4	5.3	30.30	54.3	0.0	13.01	-136.1	0	32.3	34.4	29.9	0	154	0	0	0	82.2	39.2	0.0
2020 11/28 17:45	35.9	82.0	83.8	13.9	30.30	54.4	0.0	13.01	-136.1	0	32.7	35.3	30.9	0	154	0	0	0	81.7	39.0	0.0
2020 11/28 18:00	36.1	72.5	97.9	17.3	30.30	54.4	0.0	13.02	-136.1	0	32.5	34.4	30.4	0	154	0	0	0	80.5	38.6	0.0
2020 11/28 18:15	35.5	70.8	109.7	15.1	30.30	54.4	0.0	12.99	-136.0	0	32.5	34.4	28.8	0	154	0	0	0	79.3	38.4	0.0
2020 11/28 18:30	35.0	71.7	123.3	18.9	30.30	54.6	0.0	12.99	-136.0	0	32.6	34.4	28.1	0	154	0	0	0	79.3	38.0	0.0
2020 11/28 18:45	34.8	72.8	102.7	17.6	30.29	54.6	0.0	13.02	-136.0	0	32.7	34.4	28.1	0	154	0	0	0	80.8	37.8	0.0
2020 11/28 19:00	34.5	70.9	114.2	17.2	30.29	54.6	0.0	13.01	-135.9	0	32.5	34.4	27.8	0	154	0	0	0	82.0	37.5	0.0
2020 11/28 19:15	34.9	63.0	114.9	23.6	30.29	54.8	0.0	13.00	-135.9	0	32.5	34.4	26.9	0	154	0	0	0	82.8	37.2	0.0
2020 11/28 19:30	34.8	62.3	117.2	19.8	30.29	54.8	0.0	13.02	-135.9	0	32.7	34.4	27.1	0	154	0	0	0	83.0	36.9	0.0
2020 11/28 19:45	34.9	60.5	105.1	18.9	30.29	54.8	0.0	13.01	-135.9	0	32.6	33.5	26.1	0	154	0	0	0	83.0	36.8	0.0
2020 11/28 20:00	34.0	63.2	92.0	27.1	30.30	54.8	0.0	13.00	-135.9	0	32.5	33.5	25.5	0	154	0	0	0	83.1	36.6	0.0
2020 11/28 20:15	33.9	62.6	106.2	22.6	30.30	54.8	0.0	13.01	-135.9	0	32.6	33.5	24.6	0	154	0	0	0	82.9	36.3	0.0
2020 11/28 20:30	33.5	61.8	106.2	20.5	30.30	54.7	0.0	13.00	-135.9	0	32.7	32.6	25.0	0	154	0	0	0	82.1	36.2	0.0
2020 11/28 20:45	33.5	62.8	98.8	19.4	30.30	54.6	0.0	12.98	-135.9	0	32.6	32.6	25.5	0	154	0	0	0	81.2	36.0	0.0
2020 11/28 21:00	33.3	64.3	111.2	18.2	30.30	54.6	0.0	13.00	-135.9	0	32.6	32.6	25.4	0	154	0	0	0	80.3	35.9	0.0
2020 11/28 21:15	33.4	68.0	108.0	19.9	30.30	54.6	0.0	13.01	-135.9	0	32.6	32.6	26.7	0	154	0	0	0	79.9	35.7	0.0
2020 11/28 21:30	33.0	67.6	101.7	20.8	30.31	54.6	0.0	13.02	-135.9	0	32.6	32.6	31.6	0	154	0	0	0	79.9	35.4	0.0
2020 11/28 21:45	32.8	67.2	100.0	23.5	30.31	54.4	0.0	13.01	-136.0	0	32.1	32.6	31.7	0	154	0	0	0	79.8	35.4	0.0
2020 11/28 22:00	32.8	68.1	106.4	19.1	30.30	54.4	0.0	13.01	-136.0	0	32.5	32.6	28.6	0	154	0	0	0	79.6	35.3	0.0
2020 11/28 22:15	32.5	71.4	93.1	20.9	30.31	54.4	0.0	12.99	-136.0	0	32.3	32.6	27.3	0	154	0	0	0	79.6	35.1	0.0
2020 11/28 22:30	32.4	73.6	109.1	21.8	30.30	54.3	0.0	12.99	-136.0	0	32.5	32.6	28.7	0	154	0	0	0	79.8	35.0	0.0
2020 11/28 22:45	32.3	76.4	108.1	19.4	30.30	54.1	0.0	12.99	-136.0	0	32.6	31.7	29.1	0	154	0	0	0	79.9	34.9	0.0
2020 11/28 23:00	32.4	75.4	99.7	22.8	30.30	54.1	0.0	13.01	-136.1	0	32.4	32.6	32.1	0	154	0	0	0	80.0	34.7	0.0
2020 11/28 23:15	32.2	78.8	100.4	22.0	30.30	54.1	0.0	12.99	-136.1	0	32.4	32.6	33.0	0	154	0	0	0	79.8	34.7	0.0
2020 11/28 23:30	31.9	85.2	103.3	19.8	30.30	54.1	0.0	12.99	-136.1	0	32.3	32.6	33.1	0	154	0	0	0	79.2	34.5	0.0
2020 11/28 23:45	32.2	83.2	98.2	22.5	30.29	53.9	0.0	13.00	-136.1	0	32.6	31.7	33.2	0	154	0	0	0	78.9	34.5	0.0
2020 11/29 00:00	31.8	88.8	104.3	21.2	30.29	53.9	0.0	13.01	-136.1	0	32.6	31.7	33.2	0	154	0	0	0	77.7	34.4	0.0
2020 11/29 00:15	31.8	90.5	107.0	21.9	30.29	53.7	0.0	13.01	-136.1	0	32.6	31.7	33.4	0	154	0	0	0	76.5	34.3	0.0
2020 11/29 00:30	31.4	94.1	107.5	22.2	30.28	53.7	0.0	12.99	-136.2	0	32.5	31.7	33.4	0	154	0	0	0	75.6	34.2	0.0
2020 11/29 00:45	31.1	94.9	99.3	30.6	30.27	53.5	0.0	12.99	-136.2	0	32.5	31.7	33.4	0	154	0	0	0	75.1	34.2	0.0
2020 11/29 01:00	31.6	81.0	105.2	24.2	30.27	53.5	0.0	13.01	-136.2	0	32.5	31.7	33.5	0	154	0	0	0	74.5	34.1	0.0
2020 11/29 01:15	32.5	62.9	102.6	27.3	30.26	53.3	0.0	13.01	-136.2	0	32.5	31.7	33.7	0	154	0	0	0	73.8	34.1	0.0
2020 11/29 01:30	31.9	69.9	96.5	28.6	30.26	53.3	0.0	12.99	-136.2	0	32.5	31.7	33.7	0	154	0	0	0	74.6	34.1	0.0
2020 11/29 01:45	32.8	65.7	94.6	27.8	30.26	53.1	0.0	13.00	-136.4	0	32.4	31.7	33.6	0	154	0	0	0	75.1	34.0	0.0
2020 11/29 02:00	32.3	62.4	98.3	23.5	30.26	53.1	0.0	13.01	-136.4	0	32.3	31.7	34.1	0	154	0	0	0	75.1	33.9	0.0
2020 11/29 02:15	32.4	61.3	102.1	26.6	30.25	52.9	0.0	12.99	-136.4	0	32.6	31.7	34.2	0	154	0	0	0	74.5	33.9	0.0
2020 11/29 02:30	32.7	60.0	106.7	26.1	30.25	52.9	0.0	12.99	-136.4	0	32.3	31.7	33.9	0	154	0	0	0	73.4	33.7	0.0
2020 11/29 02:45	33.4	58.1	98.3	26.1	30.24	52.6	0.0	12.99	-136.5	0	32.5	31.7	33.6	0	154	0	0	0	72.9	33.7	0.0
2020 11/29 03:00	32.7	61.4	100.5	25.4	30.23	52.6	0.0	12.99	-136.5	0	32.3	31.7	33.9	0	154	0	0	0	72.3	33.7	0.0
2020 11/29 03:15	33.9	58.9	107.6	28.0	30.23	52.4	0.0	13.00	-136.5	0	32.4	31.7	33.5	0	154	0	0	0	71.9	33.6	0.0
2020 11/29 03:30	33.3	59.7	98.0	26.7	30.23	52.2	0.0	12.98	-136.6	0	32.5	30.8	33.2	0	154	0	0	0	71.7	33.6	0.0
2020 11/29 03:45	32.7	61.5	111.1	24.1	30.22	52.1	0.0	12.98	-136.6	0	32.3	31.7	33.2	0	154	0	0	0	72.0	33.5	0.0
2020 11/29 04:00	32.8	60.7	105.2	20.1	30.21	52.0	0.0	12.98	-136.6	0	32.5	30.8	33.4	0	154	0	0	0	72.6	33.5	0.0
2020 11/29 04:15	32.5	60.2	98.6	29.4	30.21	51.8	0.0	12.99	-136.6	0	32.4	30.8	33.6	0	154	0	0	0	72.6	33.4	0.0
2020 11/29 04:30	32.2	61.2	100.2	27.5	30.21	51.8	0.0	12.99	-136.7	0	32.3	31.7	33.4	0	154	0	0	0	72.7	33.4	0.0
2020 11/29 04:45	32.1	59.2	94.0	28.8	30.22	51.6	0.0	12.99	-136.7	0	32.3	30.8	33.0	0	154	0	0	0	72.7	33.4	0.0
2020 11/29 05:00	32.1	57.5	97.2	28.4	30.21	51.6	0.0	12.98	-136.7	0	32.4	30.8	33.0	0	154	0	0	0	72.6	33.3	0.0
2020 11/29 05:15	31.7	57.7	91.0	28.8	30.20	51.4	0.0	13.00	-136.7	0	32.4	30.8	33.3	0	154	0	0	0	72.0	33.3	0.0
2020 11/29 05:30	32.2	54.7	93.4	29.2	30.20	51.4	0.0	13.00	-136.7	0	32.3	30.8	33.4	0	154	0	0	0	70.9	33.3	0.0
2020 11/29 05:45	31.8	54.9	90.2	32.8	30.20	51.1	0.0	13.00	-136.7	0	32.3	29.9	33.1	0	154	0	0	0	69.9	33.2	0.0
2020 11/29 06:00	30.5	61.1	84.0	27.5	30.20	51.1	0.0	13.01	-136.9	0	32.3	29.0	32.6	0	154	0	0	0	68.7	33.2	0.0
2020 11/29 06:15	30.7	65.6	87.2	27.9	30.20	51.0	0.0	12.98	-136.9	0	32.2	29.0	32.6	0	154	0	0	0	67.8	33.2	0.0
2020 11/29 06:30	30.8	58.3	94.3	29.4	30.19	51.0	0.0	12.98	-136.9	0	32.4	29.0	33.0	0	154	0	0	0	67.2	33.1	0.0
2020 11/29 06:45	30.5	58.3	89.7	27.1	30.19	50.9	0.3	12.99	-136.9	0	32.4	28.1	32.4	0	154	0	0	0	66.7	33.1	0.0
2020 11/29 07:00	30.4	58.1	92.0	20.4	30.20	50.7	7.5	13.00	-136.9	0	32.1	29.0	32.7	0	154	0	0	0	65.7	33.1	0.0
2020 11/29 07:15	29.7	60.1	58.7	15.5	30.19	50.8	62.4	13.01	-136.9	0	32.3	28.1	33.0	0	154	0	0	0	64.2	33.1	0.0
2020 11/29 07:30	30.7	55.4	64.0	17.2	30.19	51.0	241.9	12.99	-136.9	0	32.2	29.0	32.7	0	154	0	0	0	62.8	33.0	0.0
2020 11/29 07:45	32.4	54.0	72.9	16.8	30.19	50.9	419.7	12.99	-136.9	0	32.1	29.9	33.7	0	154	0	0	0	61.4	33.0	0.0
2020 11/29 08:00	31.3	53.3	78.1	14.6	30.20	50.9	523.2	13.01	-136.9	0	32.2	29.9	33.9	0	154	0	0	0	60.0	33.0	0.0
2020 11/29 08:15	31.4	52.0	82.2	16.7	30.20	51.0	578.5	13.00	-136.9	0	32.3	29.9	34.1	0	154	0	0	0	58.4	33.0	0.0
2020 11/29 08:30	35.9	40.2	84.3	10.9	30.19	51.1	615.8	12.99	-136.9	0	32.2	31.7	35.5	0	154	0	0	0	56.7	33.0	0.0
2020 11/29 08:45	33.3	46.5	74.5	12.1	30.19	51.1	640.5	12.98	-136.9	0	32.1	32.6	36.1	0	154	0	0	0	56.2	32.9	0.0
2020 11/29 09:00	33.5	45.3	58.8	11.5	30.19	51.3	661.6	13.01	-136.9	0	31.8	34.4	36.3	0	154	0	0	0	55.6	33.0	0.0
2020 11/29 09:15	35.0	41.0	83.0	11.2	30.20	51.4	673.1	12.98	-136.7	0	32.3	33.5	37.3	0	154	0	0	0	55.2	33.1	0.0
2020 11/29 09:30	35.6	34.7	118.3	9.2	30.19	51.4	678.5	13.02	-136.7	0	32.1	35.3	38.0	0	154	0	0	0	55.5	33.5	0.0
2020 11/29 09:45	41.0	20.0	180.7	17.2	30.19	51.4	689.4	13.00	-136.9	0	32.1	35.3	38.4	0	154	0	0	0	54.8	34.5	0.0
2020 11/29 10:00	41.8	22.7	146.6	16.1	30.19	51.4	694.8	13.02	-136.9	0	32.1	35.3	39.0	0	154	0	0	0	55.5	35.8	0.0
2020 11/29 10:15	40.2	24.1	150.4	15.4	30.19	51.5	692.8	13.00	-136.9	0	32.3	35.3	39.8	0	154	0	0	0	55.8	36.8	0.0
2020 11/29 10:30	42.0	24.5	169.8	16.0	30.18	51.6	686.7	13.01	-136.9	0	32.2	36.2	40.0	0	154	0	0	0	56.1	37.8	0.0
2020 11/29 10:45	42.6	23.1	141.2	16.7	30.18	51.8	686.7	13.00	-136.7	0	32.3	35.3	40.7	0	154	0	0	0	56.4	38.5	0.0
2020 11/29 11:00	43.3	23.5	159.2	14.5	30.18	52.0	708.0	12.99	-136.7	0	32.3	37.1	41.4	0	154	0	0	0	56.9	39.9	0.0
2020 11/29 11:15	43.5	25.8	139.6	17.1	30.18	52.2	711.0	12.99	-136.6	0	32.1	39.8	43.0	0	154	0	0	0	57.4	41.2	0.0
2020 11/29 11:30	43.7	26.7	210.4	14.0	30.18	52.5	717.0	12.99	-136.6	0	32.2	38.9	42.3	0	154	0	0	0	57.9	42.2	0.0
2020 11/29 11:45	44.1	26.9	186.9	14.1	30.17	52.8	718.0	13.01	-136.5	0	32.3	39.8	43.9	0	154	0	0	0	58.5	43.0	0.0
2020 11/29 12:00	44.1	26.1	195.1	14.2	30.17	52.9	715.0	13.01	-136.5	0	31.6	42.5	43.2	0	154	0	0	0	59.0	43.7	0.0
2020 11/29 12:15	44.1	26.1	190.7	12.8	30.17	53.1	708.0	12.99	-136.5	0	31.5	43.4	44.7	0	154	0	0	0	59.2	44.3	0.0
2020 11/29 12:30	44.8	25.6	191.2	11.7	30.16	53.1	697.9	12.99	-136.5	0	31.6	43.4	45.0	0	154	0	0	0	59.2	44.7	0.0
2020 11/29 12:45	45.1	25.9	196.7	10.4	30.16	53.3	677.2	12.99	-136.5	0	31.4	43.4	46.2	0	154	0	0	0	59.3	44.8	0.0
2020 11/29 13:00	45.1	27.8	203.7	8.0	30.16	53.3	669.7	13.00	-136.5	0	30.9	45.2	44.2	0	154	0	0	0	59.4	44.8	0.0
2020 11/29 13:15	46.1	29.4	193.3	8.1	30.16	53.4	658.9	13.02	-136.5	0	31.2	44.3	44.8	0	154	0	0	0	59.6	44.9	0.0
2020 11/29 13:30	44.8	27.7	204.9	9.2	30.16	53.5	648.7	12.99	-136.5	0	31.7	41.6	45.8	0	154	0	0	0	59.5	44.9	0.0
2020 11/29 13:45	44.4	29.0	217.3	8.0	30.15	53.5	636.1	13.00	-136.5	0	32.1	40.7	45.4	0	154	0	0	0	59.9	45.1	0.0
2020 11/29 14:00	44.3	28.6	231.4	8.1	30.15	53.7	632.1	13.01	-136.5	0	31.4	42.5	45.8	0	154	0	0	0	60.0	45.0	0.0
2020 11/29 14:15	44.3	29.4	230.7	7.4	30.15	53.9	616.1	13.01	-136.5	0	31.3	43.4	43.5	0	154	0	0	0	59.9	45.1	0.0
2020 11/29 14:30	44.8	31.4	231.4	8.1	30.15	54.1	611.0	13.01	-136.4	0	31.0	43.4	42.0	0	154	0	0	0	59.7	45.0	0.0
2020 11/29 14:45	43.2	31.9	252.5	10.0	30.15	54.4	589.3	12.99	-136.4	0	31.4	41.6	41.6	0	154	0	0	0	59.6	45.0	0.0
2020 11/29 15:00	42.3	34.1	207.9	10.4	30.16	54.6	581.8	13.01	-136.2	0	31.5	39.8	40.5	0	154	0	0	0	59.4	44.7	0.0
2020 11/29 15:15	41.7	36.6	238.3	8.0	30.15	54.7	444.1	12.99	-136.2	0	31.7	37.1	38.6	0	154	0	0	0	58.8	44.1	0.0
2020 11/29 15:30	42.3	36.2	219.4	8.0	30.15	54.8	531.0	12.99	-136.2	0	31.9	35.3	36.1	0	154	0	0	0	58.4	43.4	0.0
2020 11/29 15:45	42.8	36.4	209.0	7.4	30.16	55.0	446.8	13.02	-136.2	0	31.8	35.3	35.1	0	154	0	0	0	57.6	42.7	0.0
2020 11/29 16:00	42.1	34.0	206.4	6.8	30.16	55.0	357.3	13.00	-136.2	0	31.9	35.3	34.4	0	154	0	0	0	56.9	42.2	0.0
2020 11/29 16:15	41.3	37.2	195.9	6.6	30.16	55.0	251.7	13.01	-136.2	0	32.1	35.3	32.8	0	154	0	0	0	56.1	41.6	0.0
2020 11/29 16:30	41.1	37.8	223.7	6.2	30.16	55.0	154.7	12.99	-136.2	0	31.8	34.4	31.6	0	154	0	0	0	55.2	41.0	0.0
2020 11/29 16:45	41.7	40.0	186.4	6.9	30.15	55.0	42.8	13.02	-136.2	0	32.0	34.4	30.8	0	154	0	0	0	54.8	40.6	0.0
2020 11/29 17:00	40.7	39.8	170.0	9.1	30.15	55.2	5.4	13.01	-136.2	0	31.9	34.4	29.9	0	154	0	0	0	53.9	40.2	0.0
2020 11/29 17:15	40.9	40.5	192.9	9.9	30.15	55.2	0.7	13.02	-136.2	0	32.0	33.5	29.8	0	154	0	0	0	53.1	39.6	0.0
2020 11/29 17:30	40.6	41.7	190.5	10.9	30.15	55.2	0.0	13.02	-136.2	0	31.9	34.4	28.7	0	154	0	0	0	52.4	39.2	0.0
2020 11/29 17:45	41.6	43.5	178.0	12.1	30.14	55.2	0.0	13.01	-136.2	0	32.0	34.4	28.0	0	154	0	0	0	51.6	38.8	0.0
2020 11/29 18:00	39.4	42.1	193.4	14.4	30.14	55.4	0.0	13.02	-136.1	0	31.9	35.3	27.2	0	154	0	0	0	50.7	38.4	0.0
2020 11/29 18:15	39.6	42.3	205.5	14.8	30.14	55.4	0.0	13.01	-136.1	0	31.9	34.4	26.8	0	154	0	0	0	50.1	38.0	0.0
2020 11/29 18:30	39.1	45.0	208.4	14.7	30.14	55.4	0.0	13.00	-136.1	0	31.9	34.4	26.2	0	154	0	0	0	49.4	37.7	0.0
2020 11/29 18:45	40.1	42.1	208.1	17.6	30.14	55.6	0.0	12.99	-136.1	0	32.3	36.2	25.7	0	154	0	0	0	49.2	37.5	0.0
2020 11/29 19:00	40.5	39.9	200.8	20.6	30.14	55.6	0.0	13.02	-136.1	0	32.5	39.8	24.8	0	154	0	0	0	48.4	37.2	0.0
2020 11/29 19:15	39.9	41.9	190.8	15.7	30.14	55.6	0.0	13.01	-136.1	0	31.7	38.9	24.9	0	154	0	0	0	47.8	36.9	0.0
2020 11/29 19:30	38.5	47.7	229.7	14.1	30.14	55.5	0.0	13.01	-136.1	0	31.9	37.1	24.8	0	154	0	0	0	47.1	36.6	0.0
2020 11/29 19:45	37.1	49.7	216.1	15.4	30.13	55.4	0.0	13.01	-136.1	0	32.3	36.2	24.2	0	154	0	0	0	46.5	36.3	0.0
2020 11/29 20:00	37.7	47.9	214.0	20.4	30.13	55.4	0.0	13.01	-136.1	0	32.2	35.3	23.3	0	154	0	0	0	46.1	36.1	0.0
2020 11/29 20:15	38.2	45.8	224.3	18.2	30.13	55.4	0.0	13.02	-136.1	0	32.3	36.2	24.1	0	154	0	0	0	45.5	35.9	0.0
2020 11/29 20:30	38.7	43.0	198.9	20.6	30.12	55.4	0.0	13.01	-136.1	0	32.2	38.9	23.9	0	154	0	0	0	45.1	35.7	0.0
2020 11/29 20:45	39.0	39.8	199.1	24.9	30.11	55.4	0.0	13.01	-136.1	0	32.3	39.8	23.9	0	154	0	0	0	45.0	35.5	0.0
2020 11/29 21:00	38.7	40.2	218.8	22.8	30.11	55.2	0.0	13.01	-136.1	0	32.3	38.0	24.5	0	154	0	0	0	44.4	35.3	0.0
2020 11/29 21:15	38.7	40.3	202.6	23.3	30.11	55.2	0.0	12.99	-136.1	0	31.8	38.0	25.1	0	154	0	0	0	44.0	35.1	0.0
2020 11/29 21:30	38.2	42.1	191.5	24.0	30.10	55.0	0.0	13.03	-136.2	0	32.3	37.1	25.4	0	154	0	0	0	43.7	35.0	0.0
2020 11/29 21:45	37.8	42.3	215.4	21.2	30.10	55.0	0.0	12.99	-136.2	0	32.2	37.1	26.7	0	154	0	0	0	43.3	34.9	0.0
2020 11/29 22:00	37.8	41.2	227.1	20.1	30.09	54.8	0.0	12.99	-136.2	0	32.1	37.1	27.2	0	154	0	0	0	42.9	34.7	0.0
2020 11/29 22:15	37.7	40.4	320.1	20.1	30.09	54.6	0.0	12.99	-136.4	0	32.3	37.1	28.8	0	154	0	0	0	42.6	34.7	0.0
2020 11/29 22:30	37.4	39.5	220.5	20.0	30.08	54.6	0.0	13.01	-136.4	0	32.3	37.1	30.4	0	154	0	0	0	42.3	34.4	0.0
2020 11/29 22:45	37.3	39.0	133.2	18.8	30.08	54.4	0.0	13.01	-136.4	0	32.0	36.2	36.6	0	154	0	0	0	42.2	34.4	0.0
2020 11/29 23:00	37.6	37.3	275.6	23.1	30.07	54.3	0.0	13.01	-136.4	0	32.0	35.3	36.4	0	154	0	0	0	42.0	34.3	0.0
2020 11/29 23:15	38.3	34.8	182.6	30.8	30.06	54.1	0.0	13.00	-136.5	0	32.1	38.0	32.8	0	154	0	0	0	41.6	34.3	0.0
2020 11/29 23:30	37.9	35.6	193.5	25.3	30.05	54.1	0.0	12.99	-136.5	0	32.2	38.0	34.8	0	154	0	0	0	41.4	34.3	0.0
2020 11/29 23:45	37.6	36.0	217.3	22.1	30.05	53.9	0.0	13.02	-136.5	0	32.3	37.1	37.2	0	154	0	0	0	41.3	34.2	0.0
2020 11/30 00:00	37.6	34.8	210.2	24.4	30.04	53.7	0.0	12.99	-136.5	0	31.9	37.1	38.5	0	154	0	0	0	41.1	34.2	0.0
2020 11/30 00:15	37.2	35.1	217.1	23.8	30.03	53.5	0.0	13.01	-136.6	0	31.9	37.1	38.1	0	154	0	0	0	41.1	34.2	0.0
2020 11/30 00:30	38.4	35.5	239.2	27.6	30.04	53.4	0.0	13.02	-136.6	0	32.0	35.3	34.9	0	154	0	0	0	41.1	34.2	0.0
2020 11/30 00:45	36.5	36.8	229.4	26.9	30.03	53.3	0.0	13.01	-136.6	0	32.2	35.3	35.9	0	154	0	0	0	41.1	34.2	0.0
2020 11/30 01:00	36.1	36.5	234.2	28.0	30.02	53.2	0.0	13.01	-136.6	0	32.3	35.3	36.0	0	154	0	0	0	41.1	34.2	0.0
2020 11/30 01:15	36.5	34.5	228.5	29.9	30.01	53.1	0.0	13.01	-136.7	0	32.1	35.3	36.7	0	154	0	0	0	41.1	34.2	0.0
2020 11/30 01:30	36.8	33.4	244.8	28.6	30.01	53.1	0.0	13.00	-136.6	0	31.8	36.2	37.9	0	154	0	0	0	41.1	34.2	0.0
2020 11/30 01:45	37.1	31.8	242.6	31.3	30.00	53.1	0.0	13.00	-136.6	0	31.9	37.1	38.1	0	154	0	0	0	41.1	34.2	0.0
2020 11/30 02:00	37.3	31.1	235.9	33.9	29.99	53.1	0.0	13.02	-136.6	0	32.1	37.1	38.6	0	154	0	0	0	41.1	34.2	0.0
2020 11/30 02:15	36.8	32.2	236.0	34.7	29.98	53.1	0.0	12.98	-136.6	0	31.9	37.1	39.3	0	154	0	0	0	41.1	34.2	0.0
2020 11/30 02:30	36.6	32.5	236.0	33.6	29.98	53.1	0.0	13.01	-136.6	0	31.9	37.1	39.3	0	154	0	0	0	41.1	34.2	0.0
2020 11/30 02:45	37.0	30.5	238.8	34.2	29.98	53.1	0.0	13.01	-136.6	0	32.0	38.0	39.3	0	154	0	0	0	41.1	34.2	0.0
2020 11/30 03:00	36.8	31.0	230.1	33.8	29.98	53.1	0.0	12.99	-136.7	0	32.0	38.0	39.6	0	154	0	0	0	41.1	34.2	0.0
2020 11/30 03:15	37.2	33.1	238.8	27.5	29.98	53.1	0.0	13.01	-136.7	0	31.8	38.0	39.5	0	154	0	0	0	40.4	34.4	0.0
2020 11/30 03:30	36.0	33.3	233.7	30.1	29.96	53.1	0.0	12.99	-136.7	0	31.8	38.0	39.4	0	154	0	0	0	40.4	34.5	0.0
2020 11/30 03:45	35.6	34.3	235.1	28.2	29.95	53.1	0.0	13.00	-136.7	0	31.8	38.0	39.5	0	154	0	0	0	40.4	34.7	0.0
2020 11/30 04:00	35.5	34.9	237.7	31.5	29.95	53.1	0.0	13.01	-136.7	0	31.8	38.0	39.3	0	154	0	0	0	40.5	34.7	0.0
2020 11/30 04:15	30.8	67.1	221.3	50.1	29.91	53.2	0.0	13.01	-136.7	0	31.5	33.5	37.0	0	154	0	0	0	40.4	34.7	0.0
2020 11/30 04:30	28.8	82.4	240.7	25.9	29.93	53.3	0.0	12.99	-136.7	0	31.7	31.7	35.9	0	154	0	0	0	40.5	34.7	0.0
2020 11/30 04:45	26.8	98.7	263.3	32.2	29.95	53.3	0.0	13.00	-136.6	0	31.9	29.0	33.9	0	154	0	0	0	40.4	34.8	0.0
2020 11/30 05:00	26.9	99.1	221.6	27.5	29.95	53.3	0.0	13.01	-136.7	0	32.1	29.0	34.0	0	154	0	0	0	40.4	34.8	0.0
2020 11/30 05:15	27.5	99.1	253.1	28.5	29.93	53.3	0.0	13.00	-136.6	0	32.3	29.0	32.8	0	154	0	0	0	40.2	34.7	0.0
2020 11/30 05:30	27.2	99.2	256.1	34.7	29.93	53.3	0.0	12.99	-136.7	0	32.3	29.0	33.9	0	154	0	0	0	40.2	34.7	0.0
2020 11/30 05:45	27.1	99.2	246.8	37.2	29.93	53.3	0.0	13.01	-136.6	0	32.6	29.0	33.4	0	154	0	0	0	40.0	34.7	0.0
2020 11/30 06:00	26.8	99.1	273.3	36.8	29.95	53.3	0.0	13.01	-136.6	0	32.5	29.0	33.1	0	154	0	0	0	39.8	34.7	0.0
2020 11/30 06:15	26.3	98.8	249.8	29.9	29.97	53.3	0.0	12.98	-136.6	0	32.6	28.1	33.3	0	154	0	0	0	39.8	34.7	0.0
2020 11/30 06:30	26.2	98.7	275.3	32.9	29.97	53.3	0.0	12.99	-136.6	0	32.9	28.1	33.2	0	154	0	0	0	39.7	34.5	0.0
2020 11/30 06:45	26.2	98.7	247.6	32.9	29.99	53.3	0.0	13.01	-136.6	0	33.1	28.1	33.4	0	154	0	0	0	39.6	34.5	0.0
2020 11/30 07:00	25.9	98.7	251.8	28.7	30.00	53.4	2.0	13.01	-136.6	0	33.2	28.1	33.1	0	154	0	0	0	39.6	34.4	0.0
2020 11/30 07:15	25.6	98.4	224.2	30.5	30.01	53.5	17.6	13.00	-136.6	0	32.3	28.1	32.2	0	154	0	0	0	39.5	34.5	0.0
2020 11/30 07:30	25.6	98.3	225.3	25.3	30.02	53.4	54.3	13.01	-136.6	0	33.6	27.2	32.7	0	154	0	0	0	39.4	34.4	0.0
2020 11/30 07:45	25.6	98.5	249.8	34.0	30.04	53.4	108.6	13.01	-136.6	0	33.8	28.1	32.6	0	154	0	0	0	39.3	34.4	0.0
2020 11/30 08:00	25.6	98.6	235.4	24.6	30.05	53.3	170.0	12.99	-136.6	0	33.8	27.2	32.7	0	154	0	0	0	39.2	34.4	0.0
2020 11/30 08:15	25.7	98.4	237.4	27.5	30.07	53.3	203.2	13.00	-136.7	0	34.2	28.1	32.6	0	154	0	0	0	39.0	34.3	0.0
2020 11/30 08:30	25.3	98.3	259.3	24.6	30.07	53.3	304.3	13.00	-136.7	0	34.2	27.2	32.5	0	154	0	0	0	38.9	34.3	0.0
2020 11/30 08:45	25.5	98.5	259.9	24.2	30.07	53.3	312.5	13.01	-136.7	0	33.8	27.2	33.1	0	154	0	0	0	38.9	34.3	0.0
2020 11/30 09:00	25.5	98.4	254.4	26.9	30.07	53.1	455.0	13.00	-136.7	0	34.5	27.2	33.7	0	154	0	0	0	38.9	34.3	0.0
2020 11/30 09:15	25.9	98.6	228.9	35.2	30.06	53.1	583.2	13.00	-136.7	0	34.3	28.1	33.0	0	154	0	0	0	38.7	34.2	0.0
2020 11/30 09:30	26.8	99.3	279.4	36.8	30.04	53.1	635.1	13.00	-136.7	0	34.0	28.1	33.6	0	154	0	0	0	38.7	34.3	0.0
2020 11/30 09:45	26.3	98.9	278.5	35.5	30.05	53.1	570.7	13.01	-136.7	0	34.6	28.1	33.5	0	154	0	0	0	38.7	34.3	0.0
2020 11/30 10:00	26.3	98.9	289.4	28.4	30.07	53.0	599.8	13.02	-136.7	0	34.5	28.1	34.3	0	154	0	0	0	38.6	34.3	0.0
2020 11/30 10:15	26.3	98.8	241.8	25.9	30.08	52.9	656.1	13.01	-136.7	0	34.4	29.0	34.8	0	154	0	0	0	38.6	34.4	0.0
2020 11/30 10:30	26.4	99.0	234.8	25.8	30.07	52.9	762.0	12.99	-136.7	0	34.4	29.0	36.6	0	154	0	0	0	38.5	34.4	0.0
2020 11/30 10:45	26.3	98.8	304.6	31.1	30.07	52.9	661.9	13.01	-136.7	0	-997.0	-997.0	35.1	0	154	0	0	0	38.6	34.4	0.0
2020 11/30 11:00	26.6	99.1	227.7	31.1	30.07	52.9	684.0	13.01	-136.7	0	34.5	29.0	35.5	0	154	0	0	0	38.5	34.5	0.0
2020 11/30 11:15	26.6	99.0	285.4	27.1	30.06	52.9	639.2	12.99	-136.7	0	34.4	29.0	35.0	0	154	0	0	0	38.6	34.7	0.0
2020 11/30 11:30	27.9	100.0	261.2	26.0	30.06	52.9	769.0	13.03	-136.7	0	34.4	29.9	37.8	0	154	0	0	0	38.6	34.7	0.0
2020 11/30 11:45	26.7	98.9	214.4	28.7	30.07	53.1	717.0	13.01	-136.7	0	34.0	29.0	36.1	0	154	0	0	0	38.7	34.8	0.0
2020 11/30 12:00	27.1	99.5	240.3	20.9	30.09	53.1	719.0	13.00	-136.6	0	33.7	29.0	37.0	0	154	0	0	0	38.8	35.0	0.0
2020 11/30 12:15	26.8	99.2	291.6	25.9	30.10	53.1	678.2	12.99	-136.6	0	34.4	29.0	36.4	0	154	0	0	0	38.9	35.2	0.0
2020 11/30 12:30	26.8	99.4	204.4	30.0	30.09	53.1	710.0	13.00	-136.6	0	34.4	29.0	36.7	0	154	0	0	0	38.9	35.2	0.0
2020 11/30 12:45	27.4	99.7	233.8	25.1	30.12	53.1	731.0	13.00	-136.6	0	32.9	29.9	35.9	0	154	0	0	0	38.8	35.3	0.0
2020 11/30 13:00	27.5	99.6	275.4	26.2	30.12	53.2	753.0	13.01	-136.6	0	34.4	29.9	37.6	0	154	0	0	0	38.9	35.3	0.0
2020 11/30 13:15	27.1	99.3	53.1	17.5	30.13	53.3	702.0	13.01	-136.6	0	34.2	29.9	36.2	0	154	0	0	0	38.9	35.3	0.0
2020 11/30 13:30	26.8	99.3	304.7	21.3	30.14	53.3	641.2	13.00	-136.6	0	34.4	29.9	36.3	0	154	0	0	0	39.0	35.4	0.0
2020 11/30 13:45	27.1	99.5	283.9	16.9	30.15	53.5	619.2	13.00	-136.6	0	34.1	29.0	36.2	0	154	0	0	0	39.0	35.4	0.0
2020 11/30 14:00	27.1	99.5	255.9	29.1	30.15	53.5	574.7	13.01	-136.6	0	34.4	29.0	35.0	0	154	0	0	0	39.0	35.5	0.0
2020 11/30 14:15	26.9	99.4	320.4	25.9	30.15	53.5	612.0	13.00	-136.5	0	32.9	29.0	35.5	0	154	0	0	0	39.0	35.4	0.0
2020 11/30 14:30	27.1	99.5	278.5	22.4	30.16	53.7	505.2	13.00	-136.6	0	33.7	29.0	34.8	0	154	0	0	0	38.9	35.4	0.0
2020 11/30 14:45	26.8	99.3	332.3	16.5	30.18	53.7	468.5	12.99	-136.5	0	34.8	28.1	35.2	0	154	0	0	0	38.8	35.4	0.0
2020 11/30 15:00	26.1	98.5	234.7	13.1	30.18	53.8	465.5	13.00	-136.5	0	34.7	28.1	33.7	0	154	0	0	0	38.7	35.3	0.0
2020 11/30 15:15	25.6	98.7	279.6	21.1	30.17	53.9	545.5	13.00	-136.5	0	34.9	27.2	34.2	0	154	0	0	0	38.7	35.3	0.0
2020 11/30 15:30	25.6	98.5	10.8	17.6	30.19	53.9	463.4	12.99	-136.5	0	34.7	27.2	34.0	0	154	0	0	0	38.6	35.2	0.0
2020 11/30 15:45	25.3	98.5	244.7	24.1	30.18	53.9	362.7	13.00	-136.5	0	34.7	27.2	33.9	0	154	0	0	0	38.5	35.1	0.0
2020 11/30 16:00	25.2	98.4	242.5	21.3	30.20	53.9	260.2	12.99	-136.5	0	34.8	27.2	34.3	0	154	0	0	0	38.5	35.0	0.0
2020 11/30 16:15	25.3	98.5	323.4	15.7	30.22	53.9	212.0	13.01	-136.5	0	34.8	27.2	33.2	0	154	0	0	0	38.4	34.9	0.0
2020 11/30 16:30	25.3	98.5	230.2	18.1	30.22	53.9	67.2	13.01	-136.5	0	34.8	27.2	32.5	0	154	0	0	0	38.4	34.8	0.0
2020 11/30 16:45	25.5	98.7	98.4	11.9	30.23	53.9	16.3	13.02	-136.5	0	34.7	27.2	33.5	0	154	0	0	0	38.2	34.8	0.0
2020 11/30 17:00	25.2	98.3	202.2	15.1	30.24	53.9	1.4	13.01	-136.5	0	34.7	27.2	33.0	0	154	0	0	0	38.1	34.7	0.0
2020 11/30 17:15	25.1	98.4	334.7	10.2	30.26	53.9	0.0	13.01	-136.5	0	34.7	27.2	32.7	0	154	0	0	0	38.2	34.5	0.0
2020 11/30 17:30	25.2	98.5	270.7	12.2	30.25	53.9	0.0	13.02	-136.5	0	34.7	27.2	33.1	0	154	0	0	0	38.1	34.5	0.0
2020 11/30 17:45	25.1	98.5	199.5	17.3	30.26	53.9	0.0	13.02	-136.5	0	34.6	27.2	32.7	0	154	0	0	0	38.0	34.4	0.0
2020 11/30 18:00	24.9	98.2	284.0	14.5	30.26	53.9	0.0	13.01	-136.6	0	34.6	27.2	32.5	0	154	0	0	0	37.9	34.3	0.0
2020 11/30 18:15	25.6	98.3	305.1	14.4	30.27	53.9	0.0	13.01	-136.6	0	34.7	26.3	32.0	0	154	0	0	0	37.8	34.3	0.0
2020 11/30 18:30	24.9	98.3	240.9	8.7	30.28	53.7	0.0	13.02	-136.6	0	34.5	27.2	32.6	0	154	0	0	0	37.7	34.3	0.0
2020 11/30 18:45	25.0	98.5	302.9	10.2	30.29	53.7	0.0	13.02	-136.6	0	34.6	26.3	33.2	0	154	0	0	0	37.6	34.2	0.0
2020 11/30 19:00	24.9	98.3	2.3	11.7	30.29	53.7	0.0	13.02	-136.6	0	34.5	26.3	32.3	0	154	0	0	0	37.6	34.2	0.0
2020 11/30 19:15	24.6	98.1	275.2	9.2	30.29	53.7	0.0	13.02	-136.6	0	34.5	26.3	32.7	0	154	0	0	0	37.5	34.1	0.0
2020 11/30 19:30	24.6	98.1	152.0	10.5	30.30	53.6	0.0	13.01	-136.6	0	34.7	26.3	32.5	0	154	0	0	0	37.4	34.1	0.0
2020 11/30 19:45	24.5	98.0	307.1	9.2	30.30	53.5	0.0	13.01	-136.6	0	34.6	26.3	31.6	0	154	0	0	0	37.4	34.0	0.0
2020 11/30 20:00	24.4	98.0	30.0	9.5	30.29	53.5	0.0	12.99	-136.6	0	34.6	26.3	32.3	0	154	0	0	0	37.2	34.1	0.0
2020 11/30 20:15	24.4	98.1	228.5	6.4	30.28	53.5	0.0	13.02	-136.6	0	34.5	26.3	33.0	0	154	0	0	0	37.1	34.0	0.0
2020 11/30 20:30	24.2	97.9	297.8	8.7	30.28	53.4	0.0	13.01	-136.6	0	34.4	26.3	31.7	0	154	0	0	0	37.0	33.9	0.0
2020 11/30 20:45	23.9	97.8	254.0	7.7	30.29	53.3	0.0	13.00	-136.7	0	34.5	26.3	32.0	0	154	0	0	0	36.9	33.9	0.0
2020 11/30 21:00	24.0	98.0	248.5	12.1	30.30	53.3	0.0	12.99	-136.7	0	34.7	25.4	32.3	0	154	0	0	0	36.9	33.9	0.0
2020 11/30 21:15	23.9	97.8	346.5	11.5	30.31	53.3	0.0	13.01	-136.7	0	34.6	25.4	31.6	0	154	0	0	0	36.8	33.7	0.0
2020 11/30 21:30	24.6	98.2	139.0	5.2	30.32	53.2	0.0	13.02	-136.7	0	34.6	25.4	31.6	0	154	0	0	0	36.7	33.7	0.0
2020 11/30 21:45	23.5	97.6	296.7	10.0	30.32	53.1	0.0	13.01	-136.7	0	34.6	25.4	32.7	0	154	0	0	0	36.6	33.7	0.0
2020 11/30 22:00	23.9	97.6	323.4	5.4	30.33	53.1	0.0	13.01	-136.7	0	34.6	25.4	31.5	0	154	0	0	0	36.6	33.6	0.0
2020 11/30 22:15	23.1	97.4	135.5	4.8	30.33	53.1	0.0	13.01	-136.7	0	34.5	25.4	30.8	0	154	0	0	0	36.5	33.6	0.0
2020 11/30 22:30	23.0	97.3	21.1	2.9	30.34	53.0	0.0	13.00	-136.7	0	34.5	25.4	31.1	0	154	0	0	0	36.5	33.6	0.0
2020 11/30 22:45	22.9	97.3	333.4	4.2	30.34	52.9	0.0	13.00	-136.7	0	34.5	25.4	30.9	0	154	0	0	0	36.3	33.5	0.0
2020 11/30 23:00	22.8	97.2	320.2	5.1	30.35	52.9	0.0	13.01	-136.7	0	34.7	24.5	29.8	0	154	0	0	0	36.3	33.5	0.0
2020 11/30 23:15	22.5	97.0	319.8	6.1	30.35	52.9	0.0	13.03	-136.9	0	34.5	24.5	29.8	0	154	0	0	0	36.1	33.4	0.0
2020 11/30 23:30	22.2	97.0	312.4	4.4	30.36	52.9	0.0	13.01	-136.7	0	34.6	23.6	28.8	0	154	0	0	0	36.1	33.4	0.0
2020 11/30 23:45	22.1	96.8	292.5	5.2	30.35	52.7	0.0	13.00	-136.7	0	34.6	22.7	27.8	0	154	0	0	0	36.0	33.3	0.0
2020 12/01 00:00	22.1	97.1	310.6	11.4	30.34	52.6	0.0	13.00	-136.9	0	34.5	22.7	27.5	0	154	0	0	0	35.8	33.2	0.0
2020 12/01 00:15	22.2	97.0	316.2	16.5	30.34	52.6	0.0	13.03	-136.9	0	34.4	22.7	27.9	0	154	0	0	0	35.7	33.2	0.0
2020 12/01 00:30	22.1	96.9	316.8	6.2	30.36	52.6	0.0	12.99	-136.9	0	34.5	22.7	26.6	0	154	0	0	0	35.7	33.2	0.0
2020 12/01 00:45	21.9	96.7	335.2	12.1	30.35	52.6	0.0	13.01	-136.9	0	34.3	22.7	26.3	0	154	0	0	0	35.1	32.9	0.0
2020 12/01 01:00	21.9	96.8	5.1	6.2	30.36	52.5	0.0	13.02	-136.9	0	34.4	22.7	23.7	0	154	0	0	0	34.8	32.7	0.0
2020 12/01 01:15	21.4	96.5	65.7	6.8	30.35	52.5	0.0	13.00	-136.9	0	34.3	22.7	23.0	0	154	0	0	0	34.5	32.6	0.0
2020 12/01 01:30	22.9	97.7	63.9	12.8	30.35	52.4	0.0	13.01	-136.9	0	34.3	21.8	22.2	0	154	0	0	0	34.3	32.4	0.0
2020 12/01 01:45	22.2	97.5	54.9	14.8	30.35	52.4	0.0	13.00	-136.9	0	34.2	21.8	20.4	0	154	0	0	0	34.2	32.4	0.0
2020 12/01 02:00	23.6	98.3	72.6	19.3	30.34	52.4	0.0	13.02	-136.9	0	34.4	22.7	19.6	0	154	0	0	0	34.0	32.3	0.0
2020 12/01 02:15	22.7	97.4	64.7	18.6	30.34	52.4	0.0	13.02	-136.9	0	34.4	21.8	17.6	0	154	0	0	0	33.7	32.2	0.0
2020 12/01 02:30	24.0	98.2	63.2	14.8	30.34	52.3	0.0	13.01	-136.9	0	34.3	22.7	17.4	0	154	0	0	0	33.4	32.0	0.0
2020 12/01 02:45	22.9	97.5	66.7	17.5	30.34	52.2	0.0	13.02	-136.9	0	34.3	22.7	16.2	0	154	0	0	0	33.2	31.7	0.0
2020 12/01 03:00	24.0	98.0	69.0	16.6	30.34	52.2	0.0	13.01	-136.9	0	34.3	22.7	15.6	0	154	0	0	0	32.9	31.6	0.0
2020 12/01 03:15	22.9	97.4	67.3	17.6	30.34	52.2	0.0	13.02	-136.9	0	34.5	22.7	19.4	0	154	0	0	0	32.6	31.5	0.0
2020 12/01 03:30	24.1	97.4	68.7	17.5	30.34	52.2	0.0	13.01	-136.9	0	-997.0	-997.0	24.1	0	154	0	0	0	32.5	31.4	0.0
2020 12/01 03:45	22.8	97.4	87.6	14.4	30.33	52.2	0.0	12.99	-136.9	0	34.4	23.6	25.5	0	154	0	0	0	32.2	31.3	0.0
2020 12/01 04:00	23.3	97.4	79.1	18.2	30.33	52.2	0.0	13.01	-136.9	0	34.5	23.6	25.7	0	154	0	0	0	32.1	31.3	0.0
2020 12/01 04:15	22.9	97.3	64.4	14.7	30.33	52.1	0.0	12.99	-136.9	0	34.4	23.6	26.6	0	154	0	0	0	32.0	31.2	0.0
2020 12/01 04:30	22.8	97.4	92.8	18.2	30.33	52.1	0.0	12.99	-136.9	0	34.3	23.6	26.3	0	154	0	0	0	31.6	31.1	0.0
2020 12/01 04:45	22.4	97.2	76.9	21.1	30.34	52.0	0.0	13.00	-136.9	0	34.4	22.7	26.3	0	154	0	0	0	31.5	30.9	0.0
2020 12/01 05:00	22.2	96.9	84.9	27.3	30.34	52.0	0.0	13.00	-136.9	0	34.4	22.7	26.0	0	154	0	0	0	31.4	30.8	0.0
2020 12/01 05:15	21.9	96.9	83.9	28.1	30.33	51.9	0.0	13.01	-136.9	0	34.4	22.7	25.7	0	154	0	0	0	31.3	30.8	0.0
2020 12/01 05:30	22.3	97.4	97.6	31.3	30.34	51.8	0.0	13.00	-136.9	0	34.4	22.7	26.4	0	154	0	0	0	31.2	30.7	0.0
2020 12/01 05:45	22.1	97.0	92.3	31.1	30.33	51.6	0.0	12.99	-137.0	0	34.3	22.7	26.4	0	154	0	0	0	31.1	30.7	0.0
2020 12/01 06:00	22.7	97.6	101.5	29.8	30.32	51.6	0.0	13.00	-137.0	0	34.2	22.7	26.4	0	154	0	0	0	30.9	30.7	0.0
2020 12/01 06:15	21.8	96.9	104.5	30.5	30.32	51.4	0.0	12.98	-137.0	0	34.2	22.7	26.9	0	154	0	0	0	30.8	30.6	0.0
2020 12/01 06:30	22.1	97.1	85.1	40.8	30.32	51.1	0.0	13.00	-137.0	0	34.3	22.7	27.1	0	154	0	0	0	30.7	30.5	0.0
2020 12/01 06:45	21.9	97.1	98.8	41.5	30.30	51.0	0.3	13.00	-137.0	0	34.2	23.6	27.9	0	154	0	0	0	30.7	30.5	0.0
2020 12/01 07:00	22.5	97.4	94.1	44.9	30.31	50.8	5.4	13.00	-137.0	0	34.2	23.6	28.1	0	154	0	0	0	30.7	30.5	0.0
2020 12/01 07:15	21.6	97.1	94.3	42.8	30.31	50.5	57.0	13.00	-137.1	0	34.3	22.7	27.9	0	154	0	0	0	30.6	30.5	0.0
2020 12/01 07:30	21.6	96.9	103.0	36.8	30.31	50.3	194.4	13.00	-137.1	0	34.2	22.7	27.7	0	154	0	0	0	30.6	30.4	0.0
2020 12/01 07:45	21.7	97.0	104.0	37.3	30.31	50.2	320.3	13.00	-137.1	0	34.2	22.7	27.6	0	154	0	0	0	30.6	30.4	0.0
2020 12/01 08:00	21.8	97.1	102.7	42.8	30.31	50.1	382.4	13.00	-137.1	0	34.2	22.7	27.2	0	154	0	0	0	30.7	30.3	0.0
2020 12/01 08:15	21.8	97.0	95.4	39.5	30.31	49.9	564.2	13.00	-137.1	0	34.2	22.7	27.6	0	154	0	0	0	30.5	30.4	0.0
2020 12/01 08:30	21.7	96.8	94.0	36.9	30.32	49.9	611.7	12.99	-137.2	0	34.4	22.7	28.7	0	154	0	0	0	30.5	30.3	0.0
2020 12/01 08:45	21.6	97.0	107.5	38.5	30.32	49.9	617.2	13.00	-137.2	0	-997.0	-997.0	28.7	0	154	0	0	0	30.5	30.3	0.0
2020 12/01 09:00	21.7	97.0	97.8	46.1	30.32	49.7	679.6	12.99	-137.2	0	34.2	23.6	29.5	0	154	0	0	0	30.9	30.3	0.0
2020 12/01 09:15	21.7	96.9	111.1	41.9	30.32	49.7	691.5	12.98	-137.2	0	34.3	23.6	30.3	0	154	0	0	0	31.5	30.4	0.0
2020 12/01 09:30	21.8	97.0	105.1	45.4	30.31	49.7	713.0	13.00	-137.2	0	34.2	23.6	30.3	0	154	0	0	0	31.7	30.9	0.0
2020 12/01 09:45	21.7	96.8	100.7	44.2	30.31	49.7	723.0	12.98	-137.2	0	34.3	23.6	29.7	0	154	0	0	0	31.7	31.3	0.0
2020 12/01 10:00	21.8	97.0	90.8	47.9	30.31	49.5	684.7	12.98	-137.2	0	34.3	24.5	29.5	0	154	0	0	0	32.2	32.1	0.0
2020 12/01 10:15	21.9	97.2	108.3	54.1	30.29	49.4	709.0	12.99	-137.2	0	34.3	24.5	29.7	0	154	0	0	0	32.6	32.9	0.0
2020 12/01 10:30	22.2	97.1	100.0	51.5	30.30	49.3	673.2	12.98	-137.2	0	34.5	25.4	30.5	0	154	0	0	0	33.2	33.5	0.0
2020 12/01 10:45	22.1	97.1	86.4	51.3	30.30	48.9	650.4	12.99	-137.2	0	34.6	24.5	29.5	0	154	0	0	0	33.7	34.7	0.0
2020 12/01 11:00	22.3	97.5	94.7	56.0	30.29	48.5	666.7	12.98	-137.4	0	34.4	25.4	30.2	0	154	0	0	0	34.4	35.5	0.0
2020 12/01 11:15	22.4	97.2	98.1	49.9	30.27	48.1	734.0	12.98	-137.4	0	34.4	25.4	30.0	0	154	0	0	0	35.1	36.5	0.0
2020 12/01 11:30	22.4	97.5	92.5	50.9	30.26	47.6	700.0	13.00	-137.4	0	34.5	25.4	31.5	0	154	0	0	0	35.9	37.2	0.0
2020 12/01 11:45	22.8	97.6	98.2	45.1	30.26	47.3	730.0	13.00	-137.4	0	34.3	26.3	30.9	0	154	0	0	0	36.3	37.6	0.0
2020 12/01 12:00	23.0	97.7	100.8	46.8	30.25	47.0	716.0	13.00	-137.4	0	34.3	27.2	31.7	0	154	0	0	0	37.0	38.0	0.0
2020 12/01 12:15	23.4	97.9	89.5	45.5	30.24	46.5	709.0	12.99	-137.4	0	34.0	29.0	33.1	0	154	0	0	0	37.7	38.6	0.0
2020 12/01 12:30	23.6	98.0	94.6	46.9	30.24	46.2	699.4	13.01	-137.5	0	34.0	29.0	33.6	0	154	0	0	0	38.4	39.2	0.0
2020 12/01 12:45	23.9	98.1	100.3	47.2	30.22	45.8	688.5	13.00	-137.5	0	33.8	29.9	34.8	0	154	0	0	0	38.8	39.3	0.0
2020 12/01 13:00	25.2	98.1	100.8	41.6	30.22	45.3	677.7	12.99	-137.5	0	33.8	29.9	35.9	0	154	0	0	0	39.5	39.3	0.0
2020 12/01 13:15	24.3	98.2	91.1	49.6	30.22	44.8	680.8	12.97	-137.5	0	33.9	29.9	35.5	0	154	0	0	0	39.9	39.3	0.0
2020 12/01 13:30	24.3	98.2	92.4	49.4	30.21	44.2	691.0	12.99	-137.5	0	34.0	29.9	35.5	0	154	0	0	0	40.4	39.3	0.0
2020 12/01 13:45	24.5	98.4	88.6	57.4	30.20	43.6	690.0	12.99	-137.5	0	34.1	29.9	35.4	0	154	0	0	0	40.6	39.4	0.0
2020 12/01 14:00	24.5	98.4	90.0	57.6	30.20	42.9	663.8	13.00	-137.5	0	34.0	29.9	34.8	0	154	0	0	0	41.0	39.3	0.0
2020 12/01 14:15	24.6	98.6	91.2	57.1	30.19	42.2	633.0	12.99	-137.6	0	34.0	30.8	35.0	0	154	0	0	0	41.2	39.2	0.0
2020 12/01 14:30	24.5	98.4	93.6	59.8	30.18	41.4	663.2	12.96	-137.6	0	33.9	30.8	33.7	0	154	0	0	0	41.3	39.0	0.0
2020 12/01 14:45	24.4	98.2	94.0	59.4	30.18	40.6	604.1	12.98	-137.6	0	33.9	30.8	33.7	0	154	0	0	0	41.3	39.0	0.0
2020 12/01 15:00	24.6	98.2	89.1	56.6	30.17	39.9	586.1	13.00	-137.6	0	-997.0	-997.0	34.1	0	154	0	0	0	41.3	38.7	0.0
2020 12/01 15:15	24.1	96.5	89.4	52.8	30.17	39.2	564.7	12.98	-137.6	0	34.1	28.1	33.9	0	154	0	0	0	41.1	38.2	0.0
2020 12/01 15:30	24.1	97.1	90.6	50.8	30.16	38.6	534.5	12.97	-137.6	0	34.1	27.2	33.6	0	154	0	0	0	41.0	37.7	0.0
2020 12/01 15:45	25.1	97.9	97.6	55.1	30.15	38.2	497.5	13.00	-137.5	0	34.1	27.2	32.8	0	154	0	0	0	40.4	37.1	0.0
2020 12/01 16:00	24.0	97.1	101.5	49.6	30.14	37.8	444.6	12.99	-137.5	0	34.0	27.2	32.6	0	154	0	0	0	39.9	36.6	0.0
2020 12/01 16:15	24.3	96.9	89.1	56.1	30.13	37.5	343.1	12.98	-137.5	0	34.1	26.3	32.4	0	154	0	0	0	39.6	36.0	0.0
2020 12/01 16:30	24.3	95.2	107.1	56.6	30.11	37.1	169.0	13.00	-137.5	0	34.0	26.3	31.6	0	154	0	0	0	39.2	35.5	0.0
2020 12/01 16:45	24.3	93.2	94.4	60.6	30.12	36.6	40.7	12.98	-137.5	0	34.0	26.3	31.7	0	154	0	0	0	38.9	35.3	0.0
2020 12/01 17:00	24.1	93.1	93.7	59.9	30.11	36.2	6.8	12.97	-137.5	0	34.0	26.3	30.7	0	154	0	0	0	38.6	35.0	0.0
2020 12/01 17:15	24.3	92.1	100.3	62.1	30.10	35.8	0.7	12.98	-137.5	0	34.1	25.4	30.5	0	154	0	0	0	38.2	34.5	0.0
2020 12/01 17:30	24.3	91.2	104.4	56.4	30.10	35.4	0.0	12.99	-137.5	0	34.1	25.4	30.4	0	154	0	0	0	37.8	34.3	0.0
2020 12/01 17:45	23.8	92.9	97.4	54.2	30.12	35.1	0.0	12.98	-137.5	0	34.1	25.4	30.9	0	154	0	0	0	37.6	34.0	0.0
2020 12/01 18:00	23.9	91.7	94.4	51.3	30.11	35.0	0.0	12.99	-137.5	0	34.1	24.5	30.6	0	154	0	0	0	37.4	33.7	0.0
2020 12/01 18:15	24.1	90.4	98.7	54.9	30.10	34.7	0.0	13.00	-137.5	0	34.1	24.5	30.8	0	154	0	0	0	37.2	33.4	0.0
2020 12/01 18:30	24.1	88.9	95.0	56.5	30.10	34.6	0.0	12.96	-137.5	0	34.1	24.5	30.0	0	154	0	0	0	36.8	33.2	0.0
2020 12/01 18:45	24.1	88.5	91.4	57.3	30.10	34.3	0.0	12.98	-137.5	0	34.1	24.5	30.6	0	154	0	0	0	36.6	33.1	0.0
2020 12/01 19:00	23.9	87.5	90.9	59.3	30.10	33.9	0.0	12.98	-137.5	0	34.1	24.5	29.8	0	154	0	0	0	36.5	32.9	0.0
2020 12/01 19:15	23.5	86.5	91.4	57.6	30.08	33.5	0.0	12.98	-137.5	0	34.0	24.5	29.8	0	154	0	0	0	36.1	32.7	0.0
2020 12/01 19:30	24.1	87.1	88.5	58.5	30.08	33.2	0.0	12.99	-137.5	0	34.0	24.5	29.8	0	154	0	0	0	35.8	32.5	0.0
2020 12/01 19:45	22.9	87.2	94.2	58.2	30.09	32.9	0.0	12.99	-137.5	0	34.0	24.5	30.2	0	154	0	0	0	35.4	32.4	0.0
2020 12/01 20:00	23.8	88.5	96.6	59.8	30.08	32.5	0.0	12.97	-137.5	0	34.2	23.6	30.2	0	154	0	0	0	35.2	32.3	0.0
2020 12/01 20:15	22.8	91.7	93.3	60.9	30.08	32.2	0.0	12.97	-137.5	0	34.1	23.6	29.3	0	154	0	0	0	35.1	32.2	0.0
2020 12/01 20:30	22.4	96.6	97.9	57.8	30.08	31.8	0.0	13.00	-137.5	0	33.9	24.5	29.0	0	154	0	0	0	34.8	32.0	0.0
2020 12/01 20:45	22.9	96.3	92.3	58.5	30.08	31.6	0.0	13.00	-137.5	0	34.0	24.5	29.7	0	154	0	0	0	34.5	32.0	0.0
2020 12/01 21:00	22.9	97.0	90.5	59.2	30.07	31.3	0.0	13.00	-137.5	0	34.1	23.6	29.4	0	154	0	0	0	34.5	32.0	0.0
2020 12/01 21:15	22.9	97.4	91.6	58.4	30.07	31.0	0.0	12.97	-137.5	0	34.0	23.6	29.5	0	154	0	0	0	34.3	31.8	0.0
2020 12/01 21:30	23.4	94.4	91.2	60.6	30.06	30.8	0.0	13.00	-137.5	0	34.0	23.6	29.5	0	154	0	0	0	34.3	31.7	0.0
2020 12/01 21:45	23.2	95.7	85.1	58.4	30.06	30.6	0.0	12.99	-137.5	0	34.1	23.6	29.7	0	154	0	0	0	34.0	31.5	0.0
2020 12/01 22:00	22.9	96.2	94.4	55.3	30.07	30.5	0.0	12.98	-137.4	0	33.9	24.5	29.5	0	154	0	0	0	33.9	31.5	0.0
2020 12/01 22:15	23.3	94.7	93.3	53.3	30.07	30.4	0.0	13.00	-137.4	0	34.1	23.6	29.7	0	154	0	0	0	33.6	31.4	0.0
2020 12/01 22:30	23.2	95.4	87.2	55.6	30.06	30.4	0.0	12.98	-137.4	0	34.0	23.6	29.7	0	154	0	0	0	33.5	31.4	0.0
2020 12/01 22:45	22.7	97.1	84.2	56.5	30.06	30.4	0.0	12.98	-137.4	0	34.0	23.6	28.9	0	154	0	0	0	33.4	31.4	0.0
2020 12/01 23:00	22.6	97.6	102.6	58.6	30.05	30.4	0.0	12.97	-137.4	0	34.1	23.6	28.6	0	154	0	0	0	33.4	31.3	0.0
2020 12/01 23:15	22.4	97.8	91.3	57.8	30.05	30.3	0.0	13.00	-137.4	0	34.2	23.6	28.0	0	154	0	0	0	33.3	31.2	0.0
2020 12/01 23:30	22.6	97.5	84.4	57.8	30.04	30.4	0.0	12.97	-137.4	0	34.0	23.6	27.5	0	154	0	0	0	33.0	31.2	0.0
2020 12/01 23:45	22.7	97.7	85.0	56.7	30.05	30.4	0.0	12.97	-137.4	0	33.9	23.6	27.5	0	154	0	0	0	32.9	31.1	0.0
2020 12/02 00:00	22.7	96.7	82.7	58.9	30.04	30.6	0.0	13.00	-137.5	0	34.1	22.7	27.0	0	154	0	0	0	32.7	31.1	0.0
2020 12/02 00:15	22.9	94.7	94.2	58.6	30.03	30.6	0.0	12.99	-137.5	0	34.0	22.7	27.2	0	154	0	0	0	32.6	30.9	0.0
2020 12/02 00:30	23.4	93.8	88.4	56.1	30.03	30.8	0.0	12.99	-137.4	0	33.9	23.6	27.6	0	154	0	0	0	32.5	30.8	0.0
2020 12/02 00:45	23.1	93.0	91.4	60.6	30.02	30.8	0.0	13.00	-137.5	0	34.0	22.7	27.5	0	154	0	0	0	32.6	30.8	0.0
2020 12/02 01:00	23.7	94.2	87.7	60.2	30.03	30.8	0.0	12.98	-137.5	0	33.9	22.7	27.2	0	154	0	0	0	32.3	30.7	0.0
2020 12/02 01:15	22.6	94.0	86.3	59.2	30.02	30.7	0.0	13.00	-137.5	0	33.9	22.7	26.9	0	154	0	0	0	32.1	30.7	0.0
2020 12/02 01:30	23.8	92.5	89.6	59.4	30.02	30.6	0.0	12.98	-137.5	0	33.8	22.7	26.8	0	154	0	0	0	31.8	30.6	0.0
2020 12/02 01:45	22.7	91.2	86.3	62.6	30.01	30.5	0.0	12.99	-137.5	0	34.1	22.7	26.3	0	154	0	0	0	32.0	30.6	0.0
2020 12/02 02:00	23.2	91.3	90.1	62.2	30.01	30.4	0.0	12.98	-137.4	0	33.8	23.6	26.7	0	154	0	0	0	31.7	30.5	0.0
2020 12/02 02:15	22.7	90.1	91.2	61.5	30.02	30.2	0.0	12.98	-137.4	0	33.9	23.6	26.7	0	154	0	0	0	31.7	30.4	0.0
2020 12/02 02:30	22.8	91.3	88.5	60.9	30.01	29.9	0.0	12.98	-137.4	0	33.9	22.7	26.8	0	154	0	0	0	31.7	30.3	0.0
2020 12/02 02:45	22.7	91.3	84.1	61.5	30.01	29.7	0.0	12.98	-137.4	0	33.9	22.7	26.9	0	154	0	0	0	31.5	30.4	0.0
2020 12/02 03:00	22.7	92.0	91.0	63.1	30.01	29.3	0.0	12.98	-137.4	0	33.8	22.7	27.1	0	154	0	0	0	31.4	30.2	0.0
2020 12/02 03:15	22.4	92.2	90.0	61.6	30.01	29.1	0.0	12.98	-137.4	0	33.8	22.7	26.7	0	154	0	0	0	31.3	30.2	0.0
2020 12/02 03:30	23.6	91.7	90.5	59.2	30.01	28.9	0.0	12.98	-137.4	0	33.8	22.7	26.7	0	154	0	0	0	31.2	30.0	0.0
2020 12/02 03:45	23.2	86.1	99.9	58.6	30.00	28.7	0.0	12.98	-137.4	0	33.8	22.7	26.6	0	154	0	0	0	31.2	30.0	0.0
2020 12/02 04:00	24.6	83.0	93.8	57.2	30.01	28.4	0.0	12.98	-137.4	0	34.0	22.7	27.3	0	154	0	0	0	31.1	29.9	0.0
2020 12/02 04:15	24.0	80.5	90.1	54.9	30.01	28.3	0.0	12.98	-137.4	0	34.0	23.6	27.3	0	154	0	0	0	30.9	29.9	0.0
2020 12/02 04:30	24.2	85.8	86.6	51.2	30.00	28.2	0.0	13.00	-137.4	0	33.8	24.5	27.6	0	154	0	0	0	30.8	29.9	0.0
2020 12/02 04:45	23.4	81.9	92.5	56.1	29.99	28.1	0.0	12.99	-137.4	0	33.7	24.5	27.3	0	154	0	0	0	30.8	29.9	0.0
2020 12/02 05:00	22.8	84.9	85.4	53.4	30.00	28.0	0.0	12.98	-137.4	0	33.9	23.6	27.5	0	154	0	0	0	30.8	29.8	0.0
2020 12/02 05:15	22.8	85.7	88.8	55.6	29.99	28.0	0.0	12.98	-137.4	0	33.7	23.6	27.2	0	154	0	0	0	30.8	29.8	0.0
2020 12/02 05:30	22.8	84.5	88.4	53.2	29.99	27.9	0.0	12.98	-137.4	0	33.8	22.7	27.2	0	154	0	0	0	30.7	29.7	0.0
2020 12/02 05:45	22.9	83.2	84.8	56.7	29.99	27.9	0.0	12.98	-137.4	0	33.7	22.7	27.3	0	154	0	0	0	30.4	29.7	0.0
2020 12/02 06:00	22.4	86.8	84.4	56.8	29.99	27.8	0.0	13.00	-137.4	0	33.8	21.8	26.9	0	154	0	0	0	30.3	29.7	0.0
2020 12/02 06:15	21.5	91.3	91.2	58.8	29.99	27.8	0.0	12.98	-137.4	0	33.7	21.8	26.6	0	154	0	0	0	30.0	29.6	0.0
2020 12/02 06:30	21.8	92.3	88.9	58.5	29.98	27.8	0.0	12.99	-137.4	0	33.7	21.8	26.7	0	154	0	0	0	30.0	29.5	0.0
2020 12/02 06:45	21.0	97.2	86.9	58.6	29.98	27.8	0.0	12.98	-137.4	0	33.7	21.8	27.0	0	154	0	0	0	29.9	29.4	0.0
2020 12/02 07:00	21.2	94.0	88.3	58.2	29.98	27.8	4.8	12.99	-137.4	0	33.8	20.9	26.1	0	154	0	0	0	29.9	29.4	0.0
2020 12/02 07:15	21.1	94.9	90.8	57.8	29.98	27.8	50.3	12.98	-137.4	0	33.8	20.9	25.8	0	154	0	0	0	29.7	29.4	0.0
2020 12/02 07:30	22.4	90.6	90.5	58.9	29.97	28.1	176.2	13.00	-137.4	0	33.8	20.9	26.1	0	154	0	0	0	29.6	29.2	0.0
2020 12/02 07:45	21.6	90.3	90.7	58.0	29.98	28.4	418.3	12.98	-137.4	0	33.8	20.9	26.1	0	154	0	0	0	29.5	29.2	0.0
2020 12/02 08:00	22.7	89.2	93.0	56.6	29.98	28.7	503.5	12.98	-137.4	0	33.6	21.8	26.7	0	154	0	0	0	29.5	29.1	0.0
2020 12/02 08:15	21.5	87.5	94.5	54.1	30.00	28.7	574.8	13.00	-137.4	0	33.8	20.9	26.2	0	154	0	0	0	29.5	29.0	0.0
2020 12/02 08:30	23.8	81.0	94.1	54.6	30.00	28.7	606.3	12.99	-137.4	0	33.6	22.7	28.4	0	154	0	0	0	29.4	29.0	0.0
2020 12/02 08:45	22.4	82.1	93.7	55.4	30.00	28.7	629.8	12.98	-137.4	0	33.7	22.7	28.7	0	154	0	0	0	29.4	29.0	0.0
2020 12/02 09:00	24.3	79.0	91.4	56.0	30.00	28.7	646.4	12.98	-137.4	0	33.7	22.7	29.3	0	154	0	0	0	29.7	29.0	0.0
2020 12/02 09:15	22.6	81.5	94.2	50.9	30.00	28.7	658.6	12.98	-137.4	0	33.4	26.3	30.0	0	154	0	0	0	30.3	29.1	0.0
2020 12/02 09:30	22.9	80.4	85.3	51.5	30.01	28.7	667.8	12.98	-137.4	0	33.7	25.4	30.9	0	154	0	0	0	31.1	29.7	0.0
2020 12/02 09:45	23.2	79.1	95.4	52.8	30.02	28.8	676.6	12.97	-137.4	0	33.6	26.3	31.5	0	154	0	0	0	31.8	30.6	0.0
2020 12/02 10:00	22.8	79.4	94.4	56.7	30.03	28.9	682.7	12.97	-137.4	0	33.6	26.3	31.7	0	154	0	0	0	32.9	31.6	0.0
2020 12/02 10:15	22.1	83.8	97.3	56.2	30.01	28.9	682.1	12.98	-137.4	0	33.6	26.3	32.1	0	154	0	0	0	34.1	32.5	0.0
2020 12/02 10:30	22.9	85.1	95.8	56.8	30.02	29.1	677.6	12.97	-137.4	0	33.7	26.3	32.5	0	154	0	0	0	34.1	32.5	0.0
2020 12/02 10:45	22.2	83.6	92.2	56.5	30.00	29.1	677.6	12.99	-137.4	0	33.7	26.3	32.6	0	154	0	0	0	35.5	33.9	0.0
2020 12/02 11:00	23.6	84.1	92.8	53.3	30.01	29.3	697.7	12.98	-137.4	0	33.8	26.3	32.3	0	154	0	0	0	36.5	34.9	0.0
2020 12/02 11:15	23.3	77.3	93.3	53.3	30.01	29.3	702.0	13.00	-137.4	0	33.7	26.3	33.9	0	154	0	0	0	37.4	35.8	0.0
2020 12/02 11:30	23.7	82.4	98.1	54.0	29.99	29.3	709.0	12.98	-137.4	0	33.6	27.2	34.5	0	154	0	0	0	38.2	36.7	0.0
2020 12/02 11:45	22.9	82.4	94.8	52.7	29.99	29.5	713.0	12.98	-137.4	0	33.8	27.2	34.6	0	154	0	0	0	39.0	37.5	0.0
2020 12/02 12:00	23.6	78.8	93.9	51.2	30.00	29.7	710.0	13.00	-137.4	0	33.6	28.1	34.8	0	154	0	0	0	39.7	37.9	0.0
2020 12/02 12:15	24.2	77.6	95.6	53.6	29.99	29.7	705.0	12.98	-137.4	0	33.3	29.9	34.4	0	154	0	0	0	40.4	38.5	0.0
2020 12/02 12:30	26.0	73.1	93.8	51.4	29.98	29.9	695.6	12.98	-137.4	0	33.3	29.9	35.4	0	154	0	0	0	40.7	38.8	0.0
2020 12/02 12:45	25.1	71.4	87.6	51.3	29.99	29.9	677.0	12.99	-137.4	0	33.2	30.8	35.8	0	154	0	0	0	40.8	38.8	0.0
2020 12/02 13:00	25.3	75.0	90.7	48.4	29.99	30.2	667.8	12.97	-137.5	0	33.2	31.7	36.1	0	154	0	0	0	41.2	38.8	0.0
2020 12/02 13:15	25.6	71.8	96.6	49.9	30.00	30.1	657.6	12.98	-137.5	0	33.4	30.8	36.0	0	154	0	0	0	41.5	38.9	0.0
2020 12/02 13:30	26.0	73.5	97.6	47.9	29.99	30.4	647.8	12.97	-137.5	0	33.6	30.8	36.6	0	154	0	0	0	41.7	38.9	0.0
2020 12/02 13:45	26.1	74.5	91.0	45.9	29.98	30.5	642.7	12.99	-137.5	0	33.6	30.8	36.7	0	154	0	0	0	42.1	39.2	0.0
2020 12/02 14:00	26.5	73.8	95.6	46.8	29.99	30.8	627.4	13.00	-137.5	0	33.3	31.7	36.4	0	154	0	0	0	42.4	39.0	0.0
2020 12/02 14:15	27.1	72.2	99.1	48.6	29.97	31.0	618.5	12.98	-137.5	0	33.2	32.6	35.3	0	154	0	0	0	42.7	39.0	0.0
2020 12/02 14:30	27.6	71.4	95.7	47.4	29.99	31.1	608.0	12.99	-137.5	0	33.2	32.6	35.4	0	154	0	0	0	42.7	39.0	0.0
2020 12/02 14:45	28.2	69.9	99.0	43.6	29.97	31.4	588.6	13.00	-137.5	0	33.4	31.7	34.6	0	154	0	0	0	42.9	38.8	0.0
2020 12/02 15:00	28.1	70.0	99.4	47.8	29.98	31.6	573.3	13.00	-137.4	0	33.4	30.8	34.5	0	154	0	0	0	42.6	38.5	0.0

Where:
  YYYY   = Year
  MM/DD  = Month / Date
  hh:mm  = Hour  : Minute
  Temp   = Temperature outside       (F)              @ 5720', on tower
  Humid  = Humidity    outside       (%)              @ 5720'
  W_dir  = Wind direction / Azimuth  (degrees)        @ 5720'
  W_spd  = Wind speed                (miles per hour) @ 5720'
  Barom  = Sea-level air pressure    (inches of mercury)
  T_int  = Temperature (internal)    (F)              - inside barometer case
  Light  = Outside light level       (no units)       - 0 = dark, 1000 = bright
  Power  = Power supply rail         (Volts)
  Temp2  = Temperature (back-up)     (F)
  P2     = datalogger counter channel "P2" (to be static burst counter)
  Snow   = Snow depth,  mid-mountain (inches)         @ 5010'
  T_mid  = Temperature, mid-mountain (F)              @ 5010'
  T_base = Temperature @ south lodge (F)              @ 4700'
  Precip = Precipitation total       (inches)         @ 4800' (near US20 mp81)

Notes:
1999 07/17
   Barometric data in this listing should have an additional
   temperature correction applied to it, based on the sensor's
   internal temperature:

   P_corrected = Barom + (-0.0223 * T_int) + 0.8887  (inches Hg)

2004 07/03
   The air pressure correction equation has not been checked
   in a long time.  The air pressure reading is best used only
   to observe general trends.

2006 11/18
   Added precipitation gauge.  Depth is precipitation equivalent in water,
   for the water year (beginning October 1st) at the Hogg Pass
   SnoTel station.

2011 03/11
  Fixed data column title bug from adding "T_base" after "T_mid".
  If you notice a bug like this it will get fixed a whole lot sooner
  if you tell me about it.